<?xml version="1.0" encoding="UTF-8" standalone="no" ?>
<gpx xmlns="http://www.topografix.com/GPX/1/1" xmlns:xsi="http://www.w3.org/2001/XMLSchema-instance" xsi:schemaLocation="http://www.topografix.com/GPX/1/1 http://www.topografix.com/GPX/1/1/gpx.xsd" version="1.1" creator="VisuGPX - https://www.visugpx.com">
  <metadata>
    <name>Plogonnec/Locronan</name>
    <desc><![CDATA[Parking et Départ Rte de St Albin Plogonnec. 
A gauche en sortant du parking,puis a gauche au carrefour, descendre la rue, puis à droite entrer dans la zone artisanale, passer à proximité des stades, traverser le rond point de Super U D63 direction Kerganapé, monter à droite vers Bonnescat, suivre la rte qui monte à Pen ar Voëz, tournez à gauche direction Lezmel, traverser la rte de St Albin et monter en face vers la chapelle de St Thélau, le chemin passe à gauche de la chapelle, et monte au sommet de la montagne de Locronan chapelle ar Sonj. Descendre à gauche jusqu'au croisement, encore à gauche direction Parkou Ménez, puis Maner Beuliec, retrouver la rte de St Albin, et à droite rejoindre le parking
hervé]]></desc>
  </metadata>
  <trk>
    <name><![CDATA[Plogonnec / Locronan06/12/2018 14:01:58]]></name>
    <trkseg>
      <trkpt lat="48.07827" lon="-4.19046">
        <ele>132.39999389648</ele>
        <time>2018-12-06T13:01:58Z</time>
      </trkpt>
      <trkpt lat="48.07836" lon="-4.19054">
        <ele>128.19999694824</ele>
        <time>2018-12-06T13:02:13Z</time>
      </trkpt>
      <trkpt lat="48.0784" lon="-4.19063">
        <ele>124.19999694824</ele>
        <time>2018-12-06T13:02:27Z</time>
      </trkpt>
      <trkpt lat="48.07852" lon="-4.1908">
        <ele>119</ele>
        <time>2018-12-06T13:02:47Z</time>
      </trkpt>
      <trkpt lat="48.07833" lon="-4.19103">
        <ele>116</ele>
        <time>2018-12-06T13:03:06Z</time>
      </trkpt>
      <trkpt lat="48.07828" lon="-4.19102">
        <ele>115.80000305176</ele>
        <time>2018-12-06T13:03:16Z</time>
      </trkpt>
      <trkpt lat="48.07813" lon="-4.19096">
        <ele>117.40000152588</ele>
        <time>2018-12-06T13:03:29Z</time>
      </trkpt>
      <trkpt lat="48.07782" lon="-4.1906">
        <ele>122.19999694824</ele>
        <time>2018-12-06T13:03:58Z</time>
      </trkpt>
      <trkpt lat="48.07768" lon="-4.19046">
        <ele>129.19999694824</ele>
        <time>2018-12-06T13:04:14Z</time>
      </trkpt>
      <trkpt lat="48.07749" lon="-4.1902">
        <ele>131.60000610352</ele>
        <time>2018-12-06T13:04:32Z</time>
      </trkpt>
      <trkpt lat="48.07729" lon="-4.19003">
        <ele>138.60000610352</ele>
        <time>2018-12-06T13:04:50Z</time>
      </trkpt>
      <trkpt lat="48.07719" lon="-4.18993">
        <ele>139.19999694824</ele>
        <time>2018-12-06T13:05:01Z</time>
      </trkpt>
      <trkpt lat="48.07709" lon="-4.18996">
        <ele>137.39999389648</ele>
        <time>2018-12-06T13:05:09Z</time>
      </trkpt>
      <trkpt lat="48.07697" lon="-4.1899">
        <ele>132.39999389648</ele>
        <time>2018-12-06T13:05:19Z</time>
      </trkpt>
      <trkpt lat="48.07688" lon="-4.19014">
        <ele>124.80000305176</ele>
        <time>2018-12-06T13:05:35Z</time>
      </trkpt>
      <trkpt lat="48.07681" lon="-4.19045">
        <ele>117</ele>
        <time>2018-12-06T13:05:53Z</time>
      </trkpt>
      <trkpt lat="48.07675" lon="-4.19049">
        <ele>116.80000305176</ele>
        <time>2018-12-06T13:06:00Z</time>
      </trkpt>
      <trkpt lat="48.07657" lon="-4.19033">
        <ele>116.59999847412</ele>
        <time>2018-12-06T13:06:16Z</time>
      </trkpt>
      <trkpt lat="48.07642" lon="-4.19024">
        <ele>120.59999847412</ele>
        <time>2018-12-06T13:06:31Z</time>
      </trkpt>
      <trkpt lat="48.0763" lon="-4.1902">
        <ele>120.19999694824</ele>
        <time>2018-12-06T13:06:42Z</time>
      </trkpt>
      <trkpt lat="48.07609" lon="-4.19017">
        <ele>119.80000305176</ele>
        <time>2018-12-06T13:06:55Z</time>
      </trkpt>
      <trkpt lat="48.07595" lon="-4.19026">
        <ele>121.40000152588</ele>
        <time>2018-12-06T13:07:10Z</time>
      </trkpt>
      <trkpt lat="48.07592" lon="-4.1903">
        <ele>121.59999847412</ele>
        <time>2018-12-06T13:07:13Z</time>
      </trkpt>
      <trkpt lat="48.07571" lon="-4.1906">
        <ele>124.19999694824</ele>
        <time>2018-12-06T13:07:34Z</time>
      </trkpt>
      <trkpt lat="48.07552" lon="-4.1907">
        <ele>128.60000610352</ele>
        <time>2018-12-06T13:07:50Z</time>
      </trkpt>
      <trkpt lat="48.07539" lon="-4.19074">
        <ele>130</ele>
        <time>2018-12-06T13:08:04Z</time>
      </trkpt>
      <trkpt lat="48.0753" lon="-4.19077">
        <ele>130.19999694824</ele>
        <time>2018-12-06T13:08:12Z</time>
      </trkpt>
      <trkpt lat="48.07521" lon="-4.19079">
        <ele>130.39999389648</ele>
        <time>2018-12-06T13:08:19Z</time>
      </trkpt>
      <trkpt lat="48.07513" lon="-4.19081">
        <ele>130.60000610352</ele>
        <time>2018-12-06T13:08:24Z</time>
      </trkpt>
      <trkpt lat="48.07511" lon="-4.19082">
        <ele>130.60000610352</ele>
        <time>2018-12-06T13:08:26Z</time>
      </trkpt>
      <trkpt lat="48.07491" lon="-4.19068">
        <ele>135.39999389648</ele>
        <time>2018-12-06T13:08:45Z</time>
      </trkpt>
      <trkpt lat="48.07492" lon="-4.19052">
        <ele>135</ele>
        <time>2018-12-06T13:08:52Z</time>
      </trkpt>
      <trkpt lat="48.07488" lon="-4.19033">
        <ele>132.39999389648</ele>
        <time>2018-12-06T13:09:05Z</time>
      </trkpt>
      <trkpt lat="48.07485" lon="-4.19007">
        <ele>129</ele>
        <time>2018-12-06T13:09:23Z</time>
      </trkpt>
      <trkpt lat="48.07478" lon="-4.18978">
        <ele>128.60000610352</ele>
        <time>2018-12-06T13:09:38Z</time>
      </trkpt>
      <trkpt lat="48.07473" lon="-4.18943">
        <ele>129.19999694824</ele>
        <time>2018-12-06T13:10:03Z</time>
      </trkpt>
      <trkpt lat="48.07466" lon="-4.18905">
        <ele>128.19999694824</ele>
        <time>2018-12-06T13:10:23Z</time>
      </trkpt>
      <trkpt lat="48.07458" lon="-4.18874">
        <ele>127.59999847412</ele>
        <time>2018-12-06T13:10:40Z</time>
      </trkpt>
      <trkpt lat="48.0745" lon="-4.18857">
        <ele>126.59999847412</ele>
        <time>2018-12-06T13:10:54Z</time>
      </trkpt>
      <trkpt lat="48.0743" lon="-4.18836">
        <ele>125.59999847412</ele>
        <time>2018-12-06T13:11:06Z</time>
      </trkpt>
      <trkpt lat="48.07414" lon="-4.18821">
        <ele>128.80000305176</ele>
        <time>2018-12-06T13:11:21Z</time>
      </trkpt>
      <trkpt lat="48.07399" lon="-4.18811">
        <ele>132.60000610352</ele>
        <time>2018-12-06T13:11:34Z</time>
      </trkpt>
      <trkpt lat="48.07383" lon="-4.18799">
        <ele>135.39999389648</ele>
        <time>2018-12-06T13:11:51Z</time>
      </trkpt>
      <trkpt lat="48.07377" lon="-4.18771">
        <ele>132.39999389648</ele>
        <time>2018-12-06T13:12:07Z</time>
      </trkpt>
      <trkpt lat="48.07376" lon="-4.18764">
        <ele>131.19999694824</ele>
        <time>2018-12-06T13:12:13Z</time>
      </trkpt>
      <trkpt lat="48.07377" lon="-4.18757">
        <ele>131</ele>
        <time>2018-12-06T13:12:17Z</time>
      </trkpt>
      <trkpt lat="48.07378" lon="-4.18731">
        <ele>128.60000610352</ele>
        <time>2018-12-06T13:12:32Z</time>
      </trkpt>
      <trkpt lat="48.07378" lon="-4.18729">
        <ele>128.39999389648</ele>
        <time>2018-12-06T13:12:33Z</time>
      </trkpt>
      <trkpt lat="48.07379" lon="-4.18725">
        <ele>128</ele>
        <time>2018-12-06T13:12:35Z</time>
      </trkpt>
      <trkpt lat="48.07384" lon="-4.18704">
        <ele>126.19999694824</ele>
        <time>2018-12-06T13:12:49Z</time>
      </trkpt>
      <trkpt lat="48.07392" lon="-4.18697">
        <ele>125.80000305176</ele>
        <time>2018-12-06T13:13:03Z</time>
      </trkpt>
      <trkpt lat="48.07391" lon="-4.18682">
        <ele>126.19999694824</ele>
        <time>2018-12-06T13:13:19Z</time>
      </trkpt>
      <trkpt lat="48.07385" lon="-4.1867">
        <ele>126.59999847412</ele>
        <time>2018-12-06T13:13:29Z</time>
      </trkpt>
      <trkpt lat="48.07376" lon="-4.18642">
        <ele>126.80000305176</ele>
        <time>2018-12-06T13:13:46Z</time>
      </trkpt>
      <trkpt lat="48.07377" lon="-4.18622">
        <ele>127.19999694824</ele>
        <time>2018-12-06T13:14:00Z</time>
      </trkpt>
      <trkpt lat="48.07376" lon="-4.18594">
        <ele>126.40000152588</ele>
        <time>2018-12-06T13:14:15Z</time>
      </trkpt>
      <trkpt lat="48.07377" lon="-4.18582">
        <ele>125.59999847412</ele>
        <time>2018-12-06T13:14:21Z</time>
      </trkpt>
      <trkpt lat="48.0738" lon="-4.18564">
        <ele>123.59999847412</ele>
        <time>2018-12-06T13:14:32Z</time>
      </trkpt>
      <trkpt lat="48.07382" lon="-4.18535">
        <ele>124.40000152588</ele>
        <time>2018-12-06T13:14:46Z</time>
      </trkpt>
      <trkpt lat="48.07389" lon="-4.18513">
        <ele>123</ele>
        <time>2018-12-06T13:15:01Z</time>
      </trkpt>
      <trkpt lat="48.07394" lon="-4.18478">
        <ele>120.40000152588</ele>
        <time>2018-12-06T13:15:19Z</time>
      </trkpt>
      <trkpt lat="48.07402" lon="-4.18449">
        <ele>118.80000305176</ele>
        <time>2018-12-06T13:15:37Z</time>
      </trkpt>
      <trkpt lat="48.07408" lon="-4.1841">
        <ele>119.59999847412</ele>
        <time>2018-12-06T13:15:58Z</time>
      </trkpt>
      <trkpt lat="48.07416" lon="-4.18379">
        <ele>121.40000152588</ele>
        <time>2018-12-06T13:16:15Z</time>
      </trkpt>
      <trkpt lat="48.07425" lon="-4.18349">
        <ele>122.19999694824</ele>
        <time>2018-12-06T13:16:33Z</time>
      </trkpt>
      <trkpt lat="48.0743" lon="-4.18329">
        <ele>121.80000305176</ele>
        <time>2018-12-06T13:16:47Z</time>
      </trkpt>
      <trkpt lat="48.07435" lon="-4.18296">
        <ele>120</ele>
        <time>2018-12-06T13:17:05Z</time>
      </trkpt>
      <trkpt lat="48.07439" lon="-4.1827">
        <ele>118</ele>
        <time>2018-12-06T13:17:21Z</time>
      </trkpt>
      <trkpt lat="48.07446" lon="-4.18243">
        <ele>117</ele>
        <time>2018-12-06T13:17:35Z</time>
      </trkpt>
      <trkpt lat="48.07454" lon="-4.18216">
        <ele>115.80000305176</ele>
        <time>2018-12-06T13:17:51Z</time>
      </trkpt>
      <trkpt lat="48.07455" lon="-4.18196">
        <ele>114.40000152588</ele>
        <time>2018-12-06T13:17:59Z</time>
      </trkpt>
      <trkpt lat="48.07458" lon="-4.18185">
        <ele>114.59999847412</ele>
        <time>2018-12-06T13:18:05Z</time>
      </trkpt>
      <trkpt lat="48.07468" lon="-4.18163">
        <ele>114.80000305176</ele>
        <time>2018-12-06T13:18:19Z</time>
      </trkpt>
      <trkpt lat="48.07479" lon="-4.18119">
        <ele>113.59999847412</ele>
        <time>2018-12-06T13:18:40Z</time>
      </trkpt>
      <trkpt lat="48.07485" lon="-4.18102">
        <ele>112.80000305176</ele>
        <time>2018-12-06T13:18:52Z</time>
      </trkpt>
      <trkpt lat="48.07501" lon="-4.18072">
        <ele>113.40000152588</ele>
        <time>2018-12-06T13:19:09Z</time>
      </trkpt>
      <trkpt lat="48.07507" lon="-4.18047">
        <ele>110.40000152588</ele>
        <time>2018-12-06T13:19:24Z</time>
      </trkpt>
      <trkpt lat="48.07514" lon="-4.18008">
        <ele>108.19999694824</ele>
        <time>2018-12-06T13:19:43Z</time>
      </trkpt>
      <trkpt lat="48.07515" lon="-4.17983">
        <ele>107.40000152588</ele>
        <time>2018-12-06T13:19:55Z</time>
      </trkpt>
      <trkpt lat="48.07516" lon="-4.17979">
        <ele>107.80000305176</ele>
        <time>2018-12-06T13:19:57Z</time>
      </trkpt>
      <trkpt lat="48.07516" lon="-4.17965">
        <ele>109.40000152588</ele>
        <time>2018-12-06T13:20:04Z</time>
      </trkpt>
      <trkpt lat="48.07519" lon="-4.17956">
        <ele>110.40000152588</ele>
        <time>2018-12-06T13:20:08Z</time>
      </trkpt>
      <trkpt lat="48.07522" lon="-4.17934">
        <ele>111.80000305176</ele>
        <time>2018-12-06T13:20:20Z</time>
      </trkpt>
      <trkpt lat="48.07522" lon="-4.17921">
        <ele>111.59999847412</ele>
        <time>2018-12-06T13:20:27Z</time>
      </trkpt>
      <trkpt lat="48.07523" lon="-4.17882">
        <ele>111.59999847412</ele>
        <time>2018-12-06T13:20:45Z</time>
      </trkpt>
      <trkpt lat="48.07523" lon="-4.17879">
        <ele>111.80000305176</ele>
        <time>2018-12-06T13:20:47Z</time>
      </trkpt>
      <trkpt lat="48.07525" lon="-4.17858">
        <ele>111.59999847412</ele>
        <time>2018-12-06T13:20:58Z</time>
      </trkpt>
      <trkpt lat="48.07525" lon="-4.17832">
        <ele>112</ele>
        <time>2018-12-06T13:21:10Z</time>
      </trkpt>
      <trkpt lat="48.07527" lon="-4.17811">
        <ele>113</ele>
        <time>2018-12-06T13:21:23Z</time>
      </trkpt>
      <trkpt lat="48.07528" lon="-4.17778">
        <ele>112</ele>
        <time>2018-12-06T13:21:39Z</time>
      </trkpt>
      <trkpt lat="48.07527" lon="-4.17743">
        <ele>112.59999847412</ele>
        <time>2018-12-06T13:21:57Z</time>
      </trkpt>
      <trkpt lat="48.07525" lon="-4.17713">
        <ele>114.80000305176</ele>
        <time>2018-12-06T13:22:11Z</time>
      </trkpt>
      <trkpt lat="48.07524" lon="-4.17705">
        <ele>114.59999847412</ele>
        <time>2018-12-06T13:22:15Z</time>
      </trkpt>
      <trkpt lat="48.07522" lon="-4.17676">
        <ele>114.80000305176</ele>
        <time>2018-12-06T13:22:30Z</time>
      </trkpt>
      <trkpt lat="48.07521" lon="-4.17663">
        <ele>115.40000152588</ele>
        <time>2018-12-06T13:22:37Z</time>
      </trkpt>
      <trkpt lat="48.07517" lon="-4.17631">
        <ele>115.80000305176</ele>
        <time>2018-12-06T13:22:53Z</time>
      </trkpt>
      <trkpt lat="48.07517" lon="-4.17624">
        <ele>116.40000152588</ele>
        <time>2018-12-06T13:22:58Z</time>
      </trkpt>
      <trkpt lat="48.07515" lon="-4.17613">
        <ele>116</ele>
        <time>2018-12-06T13:23:04Z</time>
      </trkpt>
      <trkpt lat="48.07508" lon="-4.17567">
        <ele>116.80000305176</ele>
        <time>2018-12-06T13:23:28Z</time>
      </trkpt>
      <trkpt lat="48.07507" lon="-4.17549">
        <ele>117.19999694824</ele>
        <time>2018-12-06T13:23:38Z</time>
      </trkpt>
      <trkpt lat="48.07502" lon="-4.17514">
        <ele>117.19999694824</ele>
        <time>2018-12-06T13:23:54Z</time>
      </trkpt>
      <trkpt lat="48.07497" lon="-4.17486">
        <ele>118.80000305176</ele>
        <time>2018-12-06T13:24:08Z</time>
      </trkpt>
      <trkpt lat="48.07492" lon="-4.17455">
        <ele>119.59999847412</ele>
        <time>2018-12-06T13:24:23Z</time>
      </trkpt>
      <trkpt lat="48.07491" lon="-4.17432">
        <ele>119.19999694824</ele>
        <time>2018-12-06T13:24:38Z</time>
      </trkpt>
      <trkpt lat="48.07489" lon="-4.17403">
        <ele>119</ele>
        <time>2018-12-06T13:24:56Z</time>
      </trkpt>
      <trkpt lat="48.0748" lon="-4.17357">
        <ele>118.19999694824</ele>
        <time>2018-12-06T13:25:16Z</time>
      </trkpt>
      <trkpt lat="48.07476" lon="-4.17336">
        <ele>121.19999694824</ele>
        <time>2018-12-06T13:25:30Z</time>
      </trkpt>
      <trkpt lat="48.07474" lon="-4.1732">
        <ele>124</ele>
        <time>2018-12-06T13:25:41Z</time>
      </trkpt>
      <trkpt lat="48.07487" lon="-4.17298">
        <ele>127.40000152588</ele>
        <time>2018-12-06T13:26:01Z</time>
      </trkpt>
      <trkpt lat="48.075" lon="-4.17288">
        <ele>125.80000305176</ele>
        <time>2018-12-06T13:26:14Z</time>
      </trkpt>
      <trkpt lat="48.07523" lon="-4.1726">
        <ele>120</ele>
        <time>2018-12-06T13:26:40Z</time>
      </trkpt>
      <trkpt lat="48.07531" lon="-4.17231">
        <ele>114.59999847412</ele>
        <time>2018-12-06T13:27:00Z</time>
      </trkpt>
      <trkpt lat="48.0752" lon="-4.17194">
        <ele>116.40000152588</ele>
        <time>2018-12-06T13:27:10Z</time>
      </trkpt>
      <trkpt lat="48.07527" lon="-4.1716">
        <ele>114.59999847412</ele>
        <time>2018-12-06T13:27:30Z</time>
      </trkpt>
      <trkpt lat="48.07531" lon="-4.17146">
        <ele>114.19999694824</ele>
        <time>2018-12-06T13:27:37Z</time>
      </trkpt>
      <trkpt lat="48.07545" lon="-4.17127">
        <ele>113.19999694824</ele>
        <time>2018-12-06T13:27:52Z</time>
      </trkpt>
      <trkpt lat="48.07554" lon="-4.17119">
        <ele>112.59999847412</ele>
        <time>2018-12-06T13:28:00Z</time>
      </trkpt>
      <trkpt lat="48.07559" lon="-4.17113">
        <ele>112.40000152588</ele>
        <time>2018-12-06T13:28:05Z</time>
      </trkpt>
      <trkpt lat="48.07564" lon="-4.17098">
        <ele>112.40000152588</ele>
        <time>2018-12-06T13:28:17Z</time>
      </trkpt>
      <trkpt lat="48.07564" lon="-4.17092">
        <ele>112.40000152588</ele>
        <time>2018-12-06T13:28:20Z</time>
      </trkpt>
      <trkpt lat="48.07563" lon="-4.17075">
        <ele>112.40000152588</ele>
        <time>2018-12-06T13:28:26Z</time>
      </trkpt>
      <trkpt lat="48.07561" lon="-4.17041">
        <ele>111.80000305176</ele>
        <time>2018-12-06T13:28:30Z</time>
      </trkpt>
      <trkpt lat="48.07547" lon="-4.16996">
        <ele>109.59999847412</ele>
        <time>2018-12-06T13:28:47Z</time>
      </trkpt>
      <trkpt lat="48.07547" lon="-4.16974">
        <ele>108.59999847412</ele>
        <time>2018-12-06T13:29:04Z</time>
      </trkpt>
      <trkpt lat="48.07542" lon="-4.16941">
        <ele>107</ele>
        <time>2018-12-06T13:29:20Z</time>
      </trkpt>
      <trkpt lat="48.0752" lon="-4.16911">
        <ele>105.59999847412</ele>
        <time>2018-12-06T13:29:45Z</time>
      </trkpt>
      <trkpt lat="48.07494" lon="-4.16892">
        <ele>103.40000152588</ele>
        <time>2018-12-06T13:30:05Z</time>
      </trkpt>
      <trkpt lat="48.07488" lon="-4.16888">
        <ele>103</ele>
        <time>2018-12-06T13:30:10Z</time>
      </trkpt>
      <trkpt lat="48.07475" lon="-4.16884">
        <ele>99.599998474121</ele>
        <time>2018-12-06T13:30:27Z</time>
      </trkpt>
      <trkpt lat="48.07482" lon="-4.1689">
        <ele>99.199996948242</ele>
        <time>2018-12-06T13:30:53Z</time>
      </trkpt>
      <trkpt lat="48.07474" lon="-4.16887">
        <ele>100</ele>
        <time>2018-12-06T13:31:26Z</time>
      </trkpt>
      <trkpt lat="48.07457" lon="-4.16896">
        <ele>100.59999847412</ele>
        <time>2018-12-06T13:31:52Z</time>
      </trkpt>
      <trkpt lat="48.07438" lon="-4.169">
        <ele>101</ele>
        <time>2018-12-06T13:32:11Z</time>
      </trkpt>
      <trkpt lat="48.07419" lon="-4.16915">
        <ele>102.40000152588</ele>
        <time>2018-12-06T13:32:34Z</time>
      </trkpt>
      <trkpt lat="48.074" lon="-4.1694">
        <ele>104.80000305176</ele>
        <time>2018-12-06T13:33:01Z</time>
      </trkpt>
      <trkpt lat="48.0739" lon="-4.16958">
        <ele>106.40000152588</ele>
        <time>2018-12-06T13:33:21Z</time>
      </trkpt>
      <trkpt lat="48.07375" lon="-4.16989">
        <ele>111.59999847412</ele>
        <time>2018-12-06T13:33:48Z</time>
      </trkpt>
      <trkpt lat="48.07372" lon="-4.16988">
        <ele>113.80000305176</ele>
        <time>2018-12-06T13:34:07Z</time>
      </trkpt>
      <trkpt lat="48.07371" lon="-4.16988">
        <ele>113.40000152588</ele>
        <time>2018-12-06T13:34:16Z</time>
      </trkpt>
      <trkpt lat="48.07367" lon="-4.16975">
        <ele>113.40000152588</ele>
        <time>2018-12-06T13:34:30Z</time>
      </trkpt>
      <trkpt lat="48.07358" lon="-4.16951">
        <ele>116</ele>
        <time>2018-12-06T13:34:48Z</time>
      </trkpt>
      <trkpt lat="48.07354" lon="-4.16935">
        <ele>117.19999694824</ele>
        <time>2018-12-06T13:35:07Z</time>
      </trkpt>
      <trkpt lat="48.07352" lon="-4.16925">
        <ele>116.19999694824</ele>
        <time>2018-12-06T13:35:25Z</time>
      </trkpt>
      <trkpt lat="48.0734" lon="-4.16896">
        <ele>116.59999847412</ele>
        <time>2018-12-06T13:35:40Z</time>
      </trkpt>
      <trkpt lat="48.07334" lon="-4.16882">
        <ele>117.59999847412</ele>
        <time>2018-12-06T13:35:48Z</time>
      </trkpt>
      <trkpt lat="48.07332" lon="-4.16875">
        <ele>119</ele>
        <time>2018-12-06T13:35:53Z</time>
      </trkpt>
      <trkpt lat="48.07326" lon="-4.16848">
        <ele>126.80000305176</ele>
        <time>2018-12-06T13:36:11Z</time>
      </trkpt>
      <trkpt lat="48.07312" lon="-4.16816">
        <ele>133</ele>
        <time>2018-12-06T13:36:32Z</time>
      </trkpt>
      <trkpt lat="48.07297" lon="-4.16783">
        <ele>135.39999389648</ele>
        <time>2018-12-06T13:36:49Z</time>
      </trkpt>
      <trkpt lat="48.07286" lon="-4.16755">
        <ele>136.39999389648</ele>
        <time>2018-12-06T13:37:06Z</time>
      </trkpt>
      <trkpt lat="48.07275" lon="-4.16729">
        <ele>136.19999694824</ele>
        <time>2018-12-06T13:37:22Z</time>
      </trkpt>
      <trkpt lat="48.07266" lon="-4.16709">
        <ele>138</ele>
        <time>2018-12-06T13:37:37Z</time>
      </trkpt>
      <trkpt lat="48.07251" lon="-4.16687">
        <ele>138.80000305176</ele>
        <time>2018-12-06T13:37:53Z</time>
      </trkpt>
      <trkpt lat="48.07243" lon="-4.1668">
        <ele>138.80000305176</ele>
        <time>2018-12-06T13:38:03Z</time>
      </trkpt>
      <trkpt lat="48.07243" lon="-4.16678">
        <ele>138.60000610352</ele>
        <time>2018-12-06T13:38:04Z</time>
      </trkpt>
      <trkpt lat="48.07242" lon="-4.16677">
        <ele>138.60000610352</ele>
        <time>2018-12-06T13:38:05Z</time>
      </trkpt>
      <trkpt lat="48.07241" lon="-4.16675">
        <ele>138.60000610352</ele>
        <time>2018-12-06T13:38:06Z</time>
      </trkpt>
      <trkpt lat="48.0724" lon="-4.16673">
        <ele>138.60000610352</ele>
        <time>2018-12-06T13:38:07Z</time>
      </trkpt>
      <trkpt lat="48.07239" lon="-4.16672">
        <ele>138.39999389648</ele>
        <time>2018-12-06T13:38:08Z</time>
      </trkpt>
      <trkpt lat="48.07238" lon="-4.16671">
        <ele>138.19999694824</ele>
        <time>2018-12-06T13:38:09Z</time>
      </trkpt>
      <trkpt lat="48.07231" lon="-4.16657">
        <ele>138.19999694824</ele>
        <time>2018-12-06T13:38:22Z</time>
      </trkpt>
      <trkpt lat="48.07232" lon="-4.16661">
        <ele>137.39999389648</ele>
        <time>2018-12-06T13:38:39Z</time>
      </trkpt>
      <trkpt lat="48.07231" lon="-4.16658">
        <ele>137.39999389648</ele>
        <time>2018-12-06T13:38:41Z</time>
      </trkpt>
      <trkpt lat="48.0723" lon="-4.16657">
        <ele>137.39999389648</ele>
        <time>2018-12-06T13:38:42Z</time>
      </trkpt>
      <trkpt lat="48.07229" lon="-4.16655">
        <ele>137.39999389648</ele>
        <time>2018-12-06T13:38:43Z</time>
      </trkpt>
      <trkpt lat="48.07228" lon="-4.16654">
        <ele>137.39999389648</ele>
        <time>2018-12-06T13:38:44Z</time>
      </trkpt>
      <trkpt lat="48.07227" lon="-4.16652">
        <ele>137.39999389648</ele>
        <time>2018-12-06T13:38:45Z</time>
      </trkpt>
      <trkpt lat="48.07226" lon="-4.16651">
        <ele>137.39999389648</ele>
        <time>2018-12-06T13:38:46Z</time>
      </trkpt>
      <trkpt lat="48.07222" lon="-4.16647">
        <ele>137.19999694824</ele>
        <time>2018-12-06T13:38:50Z</time>
      </trkpt>
      <trkpt lat="48.07222" lon="-4.16646">
        <ele>137</ele>
        <time>2018-12-06T13:38:51Z</time>
      </trkpt>
      <trkpt lat="48.07221" lon="-4.16644">
        <ele>137.19999694824</ele>
        <time>2018-12-06T13:38:52Z</time>
      </trkpt>
      <trkpt lat="48.07218" lon="-4.16641">
        <ele>136.80000305176</ele>
        <time>2018-12-06T13:38:55Z</time>
      </trkpt>
      <trkpt lat="48.07216" lon="-4.1664">
        <ele>136.60000610352</ele>
        <time>2018-12-06T13:38:56Z</time>
      </trkpt>
      <trkpt lat="48.07215" lon="-4.16638">
        <ele>136.60000610352</ele>
        <time>2018-12-06T13:38:57Z</time>
      </trkpt>
      <trkpt lat="48.07214" lon="-4.16637">
        <ele>136.60000610352</ele>
        <time>2018-12-06T13:38:58Z</time>
      </trkpt>
      <trkpt lat="48.07213" lon="-4.16635">
        <ele>136.60000610352</ele>
        <time>2018-12-06T13:38:59Z</time>
      </trkpt>
      <trkpt lat="48.07212" lon="-4.16634">
        <ele>136.60000610352</ele>
        <time>2018-12-06T13:39:00Z</time>
      </trkpt>
      <trkpt lat="48.07211" lon="-4.16632">
        <ele>136.60000610352</ele>
        <time>2018-12-06T13:39:01Z</time>
      </trkpt>
      <trkpt lat="48.07196" lon="-4.16612">
        <ele>139.60000610352</ele>
        <time>2018-12-06T13:39:15Z</time>
      </trkpt>
      <trkpt lat="48.07185" lon="-4.16594">
        <ele>142.80000305176</ele>
        <time>2018-12-06T13:39:30Z</time>
      </trkpt>
      <trkpt lat="48.07174" lon="-4.16575">
        <ele>144.60000610352</ele>
        <time>2018-12-06T13:39:45Z</time>
      </trkpt>
      <trkpt lat="48.07169" lon="-4.16567">
        <ele>143.39999389648</ele>
        <time>2018-12-06T13:39:59Z</time>
      </trkpt>
      <trkpt lat="48.07168" lon="-4.16566">
        <ele>143.39999389648</ele>
        <time>2018-12-06T13:40:00Z</time>
      </trkpt>
      <trkpt lat="48.07167" lon="-4.16566">
        <ele>143.39999389648</ele>
        <time>2018-12-06T13:40:01Z</time>
      </trkpt>
      <trkpt lat="48.07152" lon="-4.16552">
        <ele>145.39999389648</ele>
        <time>2018-12-06T13:40:15Z</time>
      </trkpt>
      <trkpt lat="48.07135" lon="-4.16539">
        <ele>147.80000305176</ele>
        <time>2018-12-06T13:40:31Z</time>
      </trkpt>
      <trkpt lat="48.0712" lon="-4.16533">
        <ele>146.80000305176</ele>
        <time>2018-12-06T13:40:46Z</time>
      </trkpt>
      <trkpt lat="48.07099" lon="-4.16527">
        <ele>145.19999694824</ele>
        <time>2018-12-06T13:41:04Z</time>
      </trkpt>
      <trkpt lat="48.07084" lon="-4.16522">
        <ele>146.39999389648</ele>
        <time>2018-12-06T13:41:19Z</time>
      </trkpt>
      <trkpt lat="48.0706" lon="-4.16509">
        <ele>150</ele>
        <time>2018-12-06T13:41:40Z</time>
      </trkpt>
      <trkpt lat="48.07052" lon="-4.16509">
        <ele>149</ele>
        <time>2018-12-06T13:41:50Z</time>
      </trkpt>
      <trkpt lat="48.07051" lon="-4.16508">
        <ele>148.80000305176</ele>
        <time>2018-12-06T13:41:51Z</time>
      </trkpt>
      <trkpt lat="48.07049" lon="-4.16508">
        <ele>148.80000305176</ele>
        <time>2018-12-06T13:41:52Z</time>
      </trkpt>
      <trkpt lat="48.07048" lon="-4.16507">
        <ele>148.80000305176</ele>
        <time>2018-12-06T13:41:53Z</time>
      </trkpt>
      <trkpt lat="48.07045" lon="-4.16506">
        <ele>149</ele>
        <time>2018-12-06T13:41:56Z</time>
      </trkpt>
      <trkpt lat="48.07044" lon="-4.16505">
        <ele>149.19999694824</ele>
        <time>2018-12-06T13:41:57Z</time>
      </trkpt>
      <trkpt lat="48.07043" lon="-4.16504">
        <ele>149.39999389648</ele>
        <time>2018-12-06T13:41:58Z</time>
      </trkpt>
      <trkpt lat="48.07042" lon="-4.16504">
        <ele>149.60000610352</ele>
        <time>2018-12-06T13:41:59Z</time>
      </trkpt>
      <trkpt lat="48.07024" lon="-4.16496">
        <ele>150.39999389648</ele>
        <time>2018-12-06T13:42:17Z</time>
      </trkpt>
      <trkpt lat="48.06988" lon="-4.16486">
        <ele>153.39999389648</ele>
        <time>2018-12-06T13:42:45Z</time>
      </trkpt>
      <trkpt lat="48.06963" lon="-4.16487">
        <ele>156</ele>
        <time>2018-12-06T13:43:04Z</time>
      </trkpt>
      <trkpt lat="48.06947" lon="-4.16486">
        <ele>158</ele>
        <time>2018-12-06T13:43:19Z</time>
      </trkpt>
      <trkpt lat="48.06919" lon="-4.16487">
        <ele>156.19999694824</ele>
        <time>2018-12-06T13:43:38Z</time>
      </trkpt>
      <trkpt lat="48.06917" lon="-4.16487">
        <ele>155.80000305176</ele>
        <time>2018-12-06T13:43:39Z</time>
      </trkpt>
      <trkpt lat="48.06915" lon="-4.16486">
        <ele>155.60000610352</ele>
        <time>2018-12-06T13:43:40Z</time>
      </trkpt>
      <trkpt lat="48.06913" lon="-4.16486">
        <ele>155.60000610352</ele>
        <time>2018-12-06T13:43:41Z</time>
      </trkpt>
      <trkpt lat="48.06878" lon="-4.16482">
        <ele>154.60000610352</ele>
        <time>2018-12-06T13:44:09Z</time>
      </trkpt>
      <trkpt lat="48.0685" lon="-4.1648">
        <ele>156.19999694824</ele>
        <time>2018-12-06T13:44:32Z</time>
      </trkpt>
      <trkpt lat="48.06838" lon="-4.16478">
        <ele>157.39999389648</ele>
        <time>2018-12-06T13:44:41Z</time>
      </trkpt>
      <trkpt lat="48.06813" lon="-4.16484">
        <ele>160.39999389648</ele>
        <time>2018-12-06T13:44:58Z</time>
      </trkpt>
      <trkpt lat="48.06802" lon="-4.16486">
        <ele>164.39999389648</ele>
        <time>2018-12-06T13:45:11Z</time>
      </trkpt>
      <trkpt lat="48.06785" lon="-4.16489">
        <ele>168.60000610352</ele>
        <time>2018-12-06T13:45:23Z</time>
      </trkpt>
      <trkpt lat="48.06773" lon="-4.16492">
        <ele>173.60000610352</ele>
        <time>2018-12-06T13:45:36Z</time>
      </trkpt>
      <trkpt lat="48.06756" lon="-4.16493">
        <ele>179</ele>
        <time>2018-12-06T13:45:50Z</time>
      </trkpt>
      <trkpt lat="48.0675" lon="-4.16491">
        <ele>180.60000610352</ele>
        <time>2018-12-06T13:45:57Z</time>
      </trkpt>
      <trkpt lat="48.06744" lon="-4.16491">
        <ele>181.60000610352</ele>
        <time>2018-12-06T13:46:02Z</time>
      </trkpt>
      <trkpt lat="48.06727" lon="-4.16489">
        <ele>181.60000610352</ele>
        <time>2018-12-06T13:46:20Z</time>
      </trkpt>
      <trkpt lat="48.06717" lon="-4.16476">
        <ele>180.39999389648</ele>
        <time>2018-12-06T13:46:35Z</time>
      </trkpt>
      <trkpt lat="48.06711" lon="-4.16471">
        <ele>180.39999389648</ele>
        <time>2018-12-06T13:46:45Z</time>
      </trkpt>
      <trkpt lat="48.06692" lon="-4.1644">
        <ele>176.80000305176</ele>
        <time>2018-12-06T13:47:05Z</time>
      </trkpt>
      <trkpt lat="48.0665" lon="-4.16419">
        <ele>175.60000610352</ele>
        <time>2018-12-06T13:47:31Z</time>
      </trkpt>
      <trkpt lat="48.06637" lon="-4.16411">
        <ele>174.39999389648</ele>
        <time>2018-12-06T13:47:42Z</time>
      </trkpt>
      <trkpt lat="48.06615" lon="-4.16402">
        <ele>173.39999389648</ele>
        <time>2018-12-06T13:48:01Z</time>
      </trkpt>
      <trkpt lat="48.06591" lon="-4.16405">
        <ele>170.39999389648</ele>
        <time>2018-12-06T13:48:20Z</time>
      </trkpt>
      <trkpt lat="48.06578" lon="-4.16404">
        <ele>166.80000305176</ele>
        <time>2018-12-06T13:48:29Z</time>
      </trkpt>
      <trkpt lat="48.06576" lon="-4.16405">
        <ele>164.19999694824</ele>
        <time>2018-12-06T13:48:32Z</time>
      </trkpt>
      <trkpt lat="48.06572" lon="-4.16405">
        <ele>157.80000305176</ele>
        <time>2018-12-06T13:48:39Z</time>
      </trkpt>
      <trkpt lat="48.06566" lon="-4.164">
        <ele>154.39999389648</ele>
        <time>2018-12-06T13:48:46Z</time>
      </trkpt>
      <trkpt lat="48.06561" lon="-4.1637">
        <ele>150.39999389648</ele>
        <time>2018-12-06T13:49:05Z</time>
      </trkpt>
      <trkpt lat="48.06557" lon="-4.16348">
        <ele>147.60000610352</ele>
        <time>2018-12-06T13:49:17Z</time>
      </trkpt>
      <trkpt lat="48.06554" lon="-4.16317">
        <ele>145.80000305176</ele>
        <time>2018-12-06T13:49:37Z</time>
      </trkpt>
      <trkpt lat="48.06548" lon="-4.16275">
        <ele>147.80000305176</ele>
        <time>2018-12-06T13:50:01Z</time>
      </trkpt>
      <trkpt lat="48.06542" lon="-4.16236">
        <ele>150.39999389648</ele>
        <time>2018-12-06T13:50:22Z</time>
      </trkpt>
      <trkpt lat="48.06539" lon="-4.16217">
        <ele>152.39999389648</ele>
        <time>2018-12-06T13:50:33Z</time>
      </trkpt>
      <trkpt lat="48.06538" lon="-4.1621">
        <ele>152.39999389648</ele>
        <time>2018-12-06T13:50:37Z</time>
      </trkpt>
      <trkpt lat="48.06533" lon="-4.16173">
        <ele>152.80000305176</ele>
        <time>2018-12-06T13:50:58Z</time>
      </trkpt>
      <trkpt lat="48.06528" lon="-4.16145">
        <ele>154</ele>
        <time>2018-12-06T13:51:15Z</time>
      </trkpt>
      <trkpt lat="48.06523" lon="-4.16112">
        <ele>154.19999694824</ele>
        <time>2018-12-06T13:51:33Z</time>
      </trkpt>
      <trkpt lat="48.06522" lon="-4.161">
        <ele>153.39999389648</ele>
        <time>2018-12-06T13:51:40Z</time>
      </trkpt>
      <trkpt lat="48.06519" lon="-4.16062">
        <ele>152.19999694824</ele>
        <time>2018-12-06T13:51:59Z</time>
      </trkpt>
      <trkpt lat="48.06518" lon="-4.16048">
        <ele>151.19999694824</ele>
        <time>2018-12-06T13:52:08Z</time>
      </trkpt>
      <trkpt lat="48.06517" lon="-4.16016">
        <ele>147</ele>
        <time>2018-12-06T13:52:26Z</time>
      </trkpt>
      <trkpt lat="48.06513" lon="-4.15987">
        <ele>143</ele>
        <time>2018-12-06T13:52:43Z</time>
      </trkpt>
      <trkpt lat="48.06513" lon="-4.15961">
        <ele>138.60000610352</ele>
        <time>2018-12-06T13:52:59Z</time>
      </trkpt>
      <trkpt lat="48.06521" lon="-4.15943">
        <ele>135.80000305176</ele>
        <time>2018-12-06T13:53:13Z</time>
      </trkpt>
      <trkpt lat="48.06535" lon="-4.15925">
        <ele>129.39999389648</ele>
        <time>2018-12-06T13:53:30Z</time>
      </trkpt>
      <trkpt lat="48.06538" lon="-4.15921">
        <ele>126.40000152588</ele>
        <time>2018-12-06T13:53:35Z</time>
      </trkpt>
      <trkpt lat="48.0654" lon="-4.15919">
        <ele>125</ele>
        <time>2018-12-06T13:53:38Z</time>
      </trkpt>
      <trkpt lat="48.06567" lon="-4.15901">
        <ele>115.80000305176</ele>
        <time>2018-12-06T13:53:55Z</time>
      </trkpt>
      <trkpt lat="48.06576" lon="-4.15897">
        <ele>114.19999694824</ele>
        <time>2018-12-06T13:54:01Z</time>
      </trkpt>
      <trkpt lat="48.06578" lon="-4.15894">
        <ele>113.19999694824</ele>
        <time>2018-12-06T13:54:04Z</time>
      </trkpt>
      <trkpt lat="48.06581" lon="-4.15894">
        <ele>112.59999847412</ele>
        <time>2018-12-06T13:54:06Z</time>
      </trkpt>
      <trkpt lat="48.06585" lon="-4.15894">
        <ele>112</ele>
        <time>2018-12-06T13:54:08Z</time>
      </trkpt>
      <trkpt lat="48.0659" lon="-4.15893">
        <ele>110.40000152588</ele>
        <time>2018-12-06T13:54:12Z</time>
      </trkpt>
      <trkpt lat="48.06605" lon="-4.15884">
        <ele>108.59999847412</ele>
        <time>2018-12-06T13:54:25Z</time>
      </trkpt>
      <trkpt lat="48.06606" lon="-4.15883">
        <ele>108.59999847412</ele>
        <time>2018-12-06T13:54:26Z</time>
      </trkpt>
      <trkpt lat="48.06618" lon="-4.15855">
        <ele>108.80000305176</ele>
        <time>2018-12-06T13:54:47Z</time>
      </trkpt>
      <trkpt lat="48.06651" lon="-4.15828">
        <ele>106.80000305176</ele>
        <time>2018-12-06T13:55:15Z</time>
      </trkpt>
      <trkpt lat="48.06662" lon="-4.15815">
        <ele>104.80000305176</ele>
        <time>2018-12-06T13:55:27Z</time>
      </trkpt>
      <trkpt lat="48.06672" lon="-4.158">
        <ele>102.40000152588</ele>
        <time>2018-12-06T13:55:40Z</time>
      </trkpt>
      <trkpt lat="48.06688" lon="-4.15789">
        <ele>97.199996948242</ele>
        <time>2018-12-06T13:55:55Z</time>
      </trkpt>
      <trkpt lat="48.06699" lon="-4.15781">
        <ele>97.199996948242</ele>
        <time>2018-12-06T13:56:06Z</time>
      </trkpt>
      <trkpt lat="48.0673" lon="-4.15771">
        <ele>94.599998474121</ele>
        <time>2018-12-06T13:56:28Z</time>
      </trkpt>
      <trkpt lat="48.06736" lon="-4.15767">
        <ele>94.599998474121</ele>
        <time>2018-12-06T13:56:33Z</time>
      </trkpt>
      <trkpt lat="48.06759" lon="-4.15761">
        <ele>99.800003051758</ele>
        <time>2018-12-06T13:56:52Z</time>
      </trkpt>
      <trkpt lat="48.06777" lon="-4.15759">
        <ele>105</ele>
        <time>2018-12-06T13:57:09Z</time>
      </trkpt>
      <trkpt lat="48.06788" lon="-4.1576">
        <ele>107.80000305176</ele>
        <time>2018-12-06T13:57:21Z</time>
      </trkpt>
      <trkpt lat="48.06792" lon="-4.15763">
        <ele>107.59999847412</ele>
        <time>2018-12-06T13:57:25Z</time>
      </trkpt>
      <trkpt lat="48.06795" lon="-4.15764">
        <ele>107.59999847412</ele>
        <time>2018-12-06T13:57:28Z</time>
      </trkpt>
      <trkpt lat="48.06805" lon="-4.15766">
        <ele>108.19999694824</ele>
        <time>2018-12-06T13:57:34Z</time>
      </trkpt>
      <trkpt lat="48.06813" lon="-4.15766">
        <ele>108</ele>
        <time>2018-12-06T13:57:41Z</time>
      </trkpt>
      <trkpt lat="48.06817" lon="-4.15766">
        <ele>108</ele>
        <time>2018-12-06T13:57:45Z</time>
      </trkpt>
      <trkpt lat="48.06821" lon="-4.15767">
        <ele>108</ele>
        <time>2018-12-06T13:57:49Z</time>
      </trkpt>
      <trkpt lat="48.06856" lon="-4.15772">
        <ele>108.80000305176</ele>
        <time>2018-12-06T13:58:12Z</time>
      </trkpt>
      <trkpt lat="48.06881" lon="-4.15774">
        <ele>107.80000305176</ele>
        <time>2018-12-06T13:58:33Z</time>
      </trkpt>
      <trkpt lat="48.06895" lon="-4.15778">
        <ele>106.59999847412</ele>
        <time>2018-12-06T13:58:53Z</time>
      </trkpt>
      <trkpt lat="48.06928" lon="-4.15784">
        <ele>103.80000305176</ele>
        <time>2018-12-06T13:59:18Z</time>
      </trkpt>
      <trkpt lat="48.06959" lon="-4.15789">
        <ele>100.19999694824</ele>
        <time>2018-12-06T13:59:41Z</time>
      </trkpt>
      <trkpt lat="48.06987" lon="-4.15796">
        <ele>97.400001525879</ele>
        <time>2018-12-06T14:00:05Z</time>
      </trkpt>
      <trkpt lat="48.07002" lon="-4.15798">
        <ele>97.199996948242</ele>
        <time>2018-12-06T14:00:18Z</time>
      </trkpt>
      <trkpt lat="48.07031" lon="-4.15798">
        <ele>94.199996948242</ele>
        <time>2018-12-06T14:00:38Z</time>
      </trkpt>
      <trkpt lat="48.07043" lon="-4.15798">
        <ele>92.599998474121</ele>
        <time>2018-12-06T14:00:49Z</time>
      </trkpt>
      <trkpt lat="48.07044" lon="-4.15798">
        <ele>92.599998474121</ele>
        <time>2018-12-06T14:00:50Z</time>
      </trkpt>
      <trkpt lat="48.07061" lon="-4.15792">
        <ele>96</ele>
        <time>2018-12-06T14:01:05Z</time>
      </trkpt>
      <trkpt lat="48.07063" lon="-4.15793">
        <ele>96.400001525879</ele>
        <time>2018-12-06T14:01:08Z</time>
      </trkpt>
      <trkpt lat="48.07077" lon="-4.1579">
        <ele>98.199996948242</ele>
        <time>2018-12-06T14:01:17Z</time>
      </trkpt>
      <trkpt lat="48.07093" lon="-4.15787">
        <ele>99.599998474121</ele>
        <time>2018-12-06T14:01:29Z</time>
      </trkpt>
      <trkpt lat="48.0711" lon="-4.15784">
        <ele>94.800003051758</ele>
        <time>2018-12-06T14:01:52Z</time>
      </trkpt>
      <trkpt lat="48.07134" lon="-4.15781">
        <ele>85.199996948242</ele>
        <time>2018-12-06T14:02:11Z</time>
      </trkpt>
      <trkpt lat="48.07143" lon="-4.15779">
        <ele>83.599998474121</ele>
        <time>2018-12-06T14:02:27Z</time>
      </trkpt>
      <trkpt lat="48.07152" lon="-4.15777">
        <ele>83.400001525879</ele>
        <time>2018-12-06T14:02:48Z</time>
      </trkpt>
      <trkpt lat="48.07168" lon="-4.15777">
        <ele>85</ele>
        <time>2018-12-06T14:03:08Z</time>
      </trkpt>
      <trkpt lat="48.07181" lon="-4.15777">
        <ele>83.599998474121</ele>
        <time>2018-12-06T14:03:35Z</time>
      </trkpt>
      <trkpt lat="48.07192" lon="-4.1578">
        <ele>84.800003051758</ele>
        <time>2018-12-06T14:03:47Z</time>
      </trkpt>
      <trkpt lat="48.07198" lon="-4.15781">
        <ele>84.199996948242</ele>
        <time>2018-12-06T14:03:54Z</time>
      </trkpt>
      <trkpt lat="48.07208" lon="-4.15782">
        <ele>82.800003051758</ele>
        <time>2018-12-06T14:04:06Z</time>
      </trkpt>
      <trkpt lat="48.07214" lon="-4.15784">
        <ele>83</ele>
        <time>2018-12-06T14:04:10Z</time>
      </trkpt>
      <trkpt lat="48.0725" lon="-4.15795">
        <ele>84.199996948242</ele>
        <time>2018-12-06T14:04:37Z</time>
      </trkpt>
      <trkpt lat="48.07275" lon="-4.15801">
        <ele>84.199996948242</ele>
        <time>2018-12-06T14:05:00Z</time>
      </trkpt>
      <trkpt lat="48.0731" lon="-4.15802">
        <ele>84.199996948242</ele>
        <time>2018-12-06T14:05:27Z</time>
      </trkpt>
      <trkpt lat="48.07338" lon="-4.15793">
        <ele>87.800003051758</ele>
        <time>2018-12-06T14:05:49Z</time>
      </trkpt>
      <trkpt lat="48.0737" lon="-4.15778">
        <ele>90.800003051758</ele>
        <time>2018-12-06T14:06:18Z</time>
      </trkpt>
      <trkpt lat="48.07376" lon="-4.15773">
        <ele>96.400001525879</ele>
        <time>2018-12-06T14:06:33Z</time>
      </trkpt>
      <trkpt lat="48.07377" lon="-4.15775">
        <ele>96.599998474121</ele>
        <time>2018-12-06T14:07:01Z</time>
      </trkpt>
      <trkpt lat="48.07376" lon="-4.15779">
        <ele>97.800003051758</ele>
        <time>2018-12-06T14:08:05Z</time>
      </trkpt>
      <trkpt lat="48.07378" lon="-4.15778">
        <ele>96.599998474121</ele>
        <time>2018-12-06T14:08:41Z</time>
      </trkpt>
      <trkpt lat="48.07399" lon="-4.15758">
        <ele>97</ele>
        <time>2018-12-06T14:09:02Z</time>
      </trkpt>
      <trkpt lat="48.07424" lon="-4.15735">
        <ele>97.800003051758</ele>
        <time>2018-12-06T14:09:28Z</time>
      </trkpt>
      <trkpt lat="48.07434" lon="-4.15723">
        <ele>97.400001525879</ele>
        <time>2018-12-06T14:09:39Z</time>
      </trkpt>
      <trkpt lat="48.07457" lon="-4.15713">
        <ele>97.199996948242</ele>
        <time>2018-12-06T14:09:56Z</time>
      </trkpt>
      <trkpt lat="48.07472" lon="-4.1571">
        <ele>97</ele>
        <time>2018-12-06T14:10:04Z</time>
      </trkpt>
      <trkpt lat="48.07501" lon="-4.15689">
        <ele>98.400001525879</ele>
        <time>2018-12-06T14:10:29Z</time>
      </trkpt>
      <trkpt lat="48.07504" lon="-4.15687">
        <ele>98.599998474121</ele>
        <time>2018-12-06T14:10:32Z</time>
      </trkpt>
      <trkpt lat="48.07509" lon="-4.15684">
        <ele>98.800003051758</ele>
        <time>2018-12-06T14:10:37Z</time>
      </trkpt>
      <trkpt lat="48.07539" lon="-4.15664">
        <ele>101.19999694824</ele>
        <time>2018-12-06T14:11:03Z</time>
      </trkpt>
      <trkpt lat="48.07564" lon="-4.15651">
        <ele>103.80000305176</ele>
        <time>2018-12-06T14:11:24Z</time>
      </trkpt>
      <trkpt lat="48.0758" lon="-4.15643">
        <ele>107.59999847412</ele>
        <time>2018-12-06T14:11:39Z</time>
      </trkpt>
      <trkpt lat="48.07601" lon="-4.15636">
        <ele>110.40000152588</ele>
        <time>2018-12-06T14:11:57Z</time>
      </trkpt>
      <trkpt lat="48.07619" lon="-4.15627">
        <ele>114.19999694824</ele>
        <time>2018-12-06T14:12:13Z</time>
      </trkpt>
      <trkpt lat="48.07637" lon="-4.15622">
        <ele>116.59999847412</ele>
        <time>2018-12-06T14:12:28Z</time>
      </trkpt>
      <trkpt lat="48.07654" lon="-4.15618">
        <ele>119.19999694824</ele>
        <time>2018-12-06T14:12:41Z</time>
      </trkpt>
      <trkpt lat="48.07668" lon="-4.15617">
        <ele>122.40000152588</ele>
        <time>2018-12-06T14:12:55Z</time>
      </trkpt>
      <trkpt lat="48.07681" lon="-4.15615">
        <ele>125.80000305176</ele>
        <time>2018-12-06T14:13:08Z</time>
      </trkpt>
      <trkpt lat="48.07699" lon="-4.15616">
        <ele>130.80000305176</ele>
        <time>2018-12-06T14:13:24Z</time>
      </trkpt>
      <trkpt lat="48.07717" lon="-4.15619">
        <ele>133</ele>
        <time>2018-12-06T14:13:37Z</time>
      </trkpt>
      <trkpt lat="48.0773" lon="-4.15619">
        <ele>135.60000610352</ele>
        <time>2018-12-06T14:13:49Z</time>
      </trkpt>
      <trkpt lat="48.07747" lon="-4.15625">
        <ele>132.19999694824</ele>
        <time>2018-12-06T14:14:01Z</time>
      </trkpt>
      <trkpt lat="48.07754" lon="-4.15639">
        <ele>134</ele>
        <time>2018-12-06T14:14:16Z</time>
      </trkpt>
      <trkpt lat="48.07749" lon="-4.15653">
        <ele>134.19999694824</ele>
        <time>2018-12-06T14:14:28Z</time>
      </trkpt>
      <trkpt lat="48.07744" lon="-4.15679">
        <ele>133.80000305176</ele>
        <time>2018-12-06T14:14:42Z</time>
      </trkpt>
      <trkpt lat="48.07737" lon="-4.15704">
        <ele>134</ele>
        <time>2018-12-06T14:14:55Z</time>
      </trkpt>
      <trkpt lat="48.0773" lon="-4.15732">
        <ele>137.80000305176</ele>
        <time>2018-12-06T14:15:09Z</time>
      </trkpt>
      <trkpt lat="48.07722" lon="-4.15753">
        <ele>141.60000610352</ele>
        <time>2018-12-06T14:15:22Z</time>
      </trkpt>
      <trkpt lat="48.07717" lon="-4.15772">
        <ele>144.19999694824</ele>
        <time>2018-12-06T14:15:33Z</time>
      </trkpt>
      <trkpt lat="48.07716" lon="-4.15779">
        <ele>146.19999694824</ele>
        <time>2018-12-06T14:15:37Z</time>
      </trkpt>
      <trkpt lat="48.07703" lon="-4.15814">
        <ele>154.60000610352</ele>
        <time>2018-12-06T14:15:53Z</time>
      </trkpt>
      <trkpt lat="48.07695" lon="-4.15835">
        <ele>158.39999389648</ele>
        <time>2018-12-06T14:16:08Z</time>
      </trkpt>
      <trkpt lat="48.07696" lon="-4.15837">
        <ele>158.19999694824</ele>
        <time>2018-12-06T14:16:09Z</time>
      </trkpt>
      <trkpt lat="48.07695" lon="-4.15839">
        <ele>158.60000610352</ele>
        <time>2018-12-06T14:16:10Z</time>
      </trkpt>
      <trkpt lat="48.07695" lon="-4.1584">
        <ele>158.39999389648</ele>
        <time>2018-12-06T14:16:11Z</time>
      </trkpt>
      <trkpt lat="48.07695" lon="-4.15841">
        <ele>158.39999389648</ele>
        <time>2018-12-06T14:16:12Z</time>
      </trkpt>
      <trkpt lat="48.07696" lon="-4.15843">
        <ele>158</ele>
        <time>2018-12-06T14:16:13Z</time>
      </trkpt>
      <trkpt lat="48.07697" lon="-4.15844">
        <ele>156.80000305176</ele>
        <time>2018-12-06T14:16:14Z</time>
      </trkpt>
      <trkpt lat="48.07698" lon="-4.15846">
        <ele>156.39999389648</ele>
        <time>2018-12-06T14:16:15Z</time>
      </trkpt>
      <trkpt lat="48.07698" lon="-4.15848">
        <ele>156.19999694824</ele>
        <time>2018-12-06T14:16:16Z</time>
      </trkpt>
      <trkpt lat="48.07698" lon="-4.1585">
        <ele>156.60000610352</ele>
        <time>2018-12-06T14:16:17Z</time>
      </trkpt>
      <trkpt lat="48.07696" lon="-4.15853">
        <ele>156.80000305176</ele>
        <time>2018-12-06T14:16:18Z</time>
      </trkpt>
      <trkpt lat="48.07695" lon="-4.15855">
        <ele>157</ele>
        <time>2018-12-06T14:16:19Z</time>
      </trkpt>
      <trkpt lat="48.07694" lon="-4.15857">
        <ele>157.19999694824</ele>
        <time>2018-12-06T14:16:20Z</time>
      </trkpt>
      <trkpt lat="48.07687" lon="-4.15876">
        <ele>158.80000305176</ele>
        <time>2018-12-06T14:16:28Z</time>
      </trkpt>
      <trkpt lat="48.07687" lon="-4.15877">
        <ele>159</ele>
        <time>2018-12-06T14:16:29Z</time>
      </trkpt>
      <trkpt lat="48.07687" lon="-4.15878">
        <ele>158</ele>
        <time>2018-12-06T14:16:30Z</time>
      </trkpt>
      <trkpt lat="48.07686" lon="-4.15879">
        <ele>157.80000305176</ele>
        <time>2018-12-06T14:16:31Z</time>
      </trkpt>
      <trkpt lat="48.07687" lon="-4.15881">
        <ele>157.19999694824</ele>
        <time>2018-12-06T14:16:33Z</time>
      </trkpt>
      <trkpt lat="48.07687" lon="-4.15883">
        <ele>157.19999694824</ele>
        <time>2018-12-06T14:16:34Z</time>
      </trkpt>
      <trkpt lat="48.07687" lon="-4.15884">
        <ele>156.80000305176</ele>
        <time>2018-12-06T14:16:35Z</time>
      </trkpt>
      <trkpt lat="48.07684" lon="-4.159">
        <ele>154</ele>
        <time>2018-12-06T14:16:43Z</time>
      </trkpt>
      <trkpt lat="48.07683" lon="-4.15904">
        <ele>154</ele>
        <time>2018-12-06T14:16:45Z</time>
      </trkpt>
      <trkpt lat="48.07681" lon="-4.15913">
        <ele>154.39999389648</ele>
        <time>2018-12-06T14:16:55Z</time>
      </trkpt>
      <trkpt lat="48.07681" lon="-4.15923">
        <ele>153.80000305176</ele>
        <time>2018-12-06T14:17:00Z</time>
      </trkpt>
      <trkpt lat="48.07669" lon="-4.15945">
        <ele>153.19999694824</ele>
        <time>2018-12-06T14:17:11Z</time>
      </trkpt>
      <trkpt lat="48.07669" lon="-4.15955">
        <ele>153</ele>
        <time>2018-12-06T14:17:15Z</time>
      </trkpt>
      <trkpt lat="48.07671" lon="-4.15966">
        <ele>153.19999694824</ele>
        <time>2018-12-06T14:17:20Z</time>
      </trkpt>
      <trkpt lat="48.07661" lon="-4.16">
        <ele>161.60000610352</ele>
        <time>2018-12-06T14:17:35Z</time>
      </trkpt>
      <trkpt lat="48.07658" lon="-4.16008">
        <ele>164</ele>
        <time>2018-12-06T14:17:41Z</time>
      </trkpt>
      <trkpt lat="48.07656" lon="-4.1601">
        <ele>164.60000610352</ele>
        <time>2018-12-06T14:17:42Z</time>
      </trkpt>
      <trkpt lat="48.07654" lon="-4.16013">
        <ele>165</ele>
        <time>2018-12-06T14:17:45Z</time>
      </trkpt>
      <trkpt lat="48.07654" lon="-4.16011">
        <ele>163.60000610352</ele>
        <time>2018-12-06T14:17:46Z</time>
      </trkpt>
      <trkpt lat="48.07654" lon="-4.16012">
        <ele>162.80000305176</ele>
        <time>2018-12-06T14:17:47Z</time>
      </trkpt>
      <trkpt lat="48.07653" lon="-4.16014">
        <ele>163.19999694824</ele>
        <time>2018-12-06T14:17:48Z</time>
      </trkpt>
      <trkpt lat="48.07651" lon="-4.16017">
        <ele>163.39999389648</ele>
        <time>2018-12-06T14:17:49Z</time>
      </trkpt>
      <trkpt lat="48.0765" lon="-4.16017">
        <ele>163.39999389648</ele>
        <time>2018-12-06T14:17:50Z</time>
      </trkpt>
      <trkpt lat="48.07647" lon="-4.16019">
        <ele>164.19999694824</ele>
        <time>2018-12-06T14:17:51Z</time>
      </trkpt>
      <trkpt lat="48.07633" lon="-4.16038">
        <ele>164.60000610352</ele>
        <time>2018-12-06T14:18:06Z</time>
      </trkpt>
      <trkpt lat="48.07634" lon="-4.16048">
        <ele>141.80000305176</ele>
        <time>2018-12-06T14:18:17Z</time>
      </trkpt>
      <trkpt lat="48.07633" lon="-4.16049">
        <ele>140.80000305176</ele>
        <time>2018-12-06T14:18:18Z</time>
      </trkpt>
      <trkpt lat="48.07633" lon="-4.16051">
        <ele>139.80000305176</ele>
        <time>2018-12-06T14:18:19Z</time>
      </trkpt>
      <trkpt lat="48.07632" lon="-4.16052">
        <ele>139.19999694824</ele>
        <time>2018-12-06T14:18:20Z</time>
      </trkpt>
      <trkpt lat="48.07632" lon="-4.16054">
        <ele>138.60000610352</ele>
        <time>2018-12-06T14:18:21Z</time>
      </trkpt>
      <trkpt lat="48.07631" lon="-4.16054">
        <ele>138.19999694824</ele>
        <time>2018-12-06T14:18:22Z</time>
      </trkpt>
      <trkpt lat="48.0763" lon="-4.16055">
        <ele>137.80000305176</ele>
        <time>2018-12-06T14:18:23Z</time>
      </trkpt>
      <trkpt lat="48.07629" lon="-4.16056">
        <ele>137.60000610352</ele>
        <time>2018-12-06T14:18:24Z</time>
      </trkpt>
      <trkpt lat="48.07628" lon="-4.16057">
        <ele>137.39999389648</ele>
        <time>2018-12-06T14:18:25Z</time>
      </trkpt>
      <trkpt lat="48.07628" lon="-4.16059">
        <ele>137</ele>
        <time>2018-12-06T14:18:26Z</time>
      </trkpt>
      <trkpt lat="48.07627" lon="-4.1606">
        <ele>136.60000610352</ele>
        <time>2018-12-06T14:18:27Z</time>
      </trkpt>
      <trkpt lat="48.07626" lon="-4.16061">
        <ele>136.39999389648</ele>
        <time>2018-12-06T14:18:28Z</time>
      </trkpt>
      <trkpt lat="48.07625" lon="-4.16062">
        <ele>136</ele>
        <time>2018-12-06T14:18:29Z</time>
      </trkpt>
      <trkpt lat="48.07624" lon="-4.16063">
        <ele>135.80000305176</ele>
        <time>2018-12-06T14:18:30Z</time>
      </trkpt>
      <trkpt lat="48.07623" lon="-4.16064">
        <ele>135.60000610352</ele>
        <time>2018-12-06T14:18:31Z</time>
      </trkpt>
      <trkpt lat="48.0762" lon="-4.16065">
        <ele>135</ele>
        <time>2018-12-06T14:18:33Z</time>
      </trkpt>
      <trkpt lat="48.07619" lon="-4.16067">
        <ele>134.19999694824</ele>
        <time>2018-12-06T14:18:34Z</time>
      </trkpt>
      <trkpt lat="48.07618" lon="-4.16068">
        <ele>133.80000305176</ele>
        <time>2018-12-06T14:18:35Z</time>
      </trkpt>
      <trkpt lat="48.07618" lon="-4.1607">
        <ele>133.60000610352</ele>
        <time>2018-12-06T14:18:36Z</time>
      </trkpt>
      <trkpt lat="48.07617" lon="-4.16072">
        <ele>133.19999694824</ele>
        <time>2018-12-06T14:18:37Z</time>
      </trkpt>
      <trkpt lat="48.07624" lon="-4.16095">
        <ele>130.39999389648</ele>
        <time>2018-12-06T14:18:52Z</time>
      </trkpt>
      <trkpt lat="48.07625" lon="-4.16119">
        <ele>134.19999694824</ele>
        <time>2018-12-06T14:19:07Z</time>
      </trkpt>
      <trkpt lat="48.07626" lon="-4.16132">
        <ele>137.39999389648</ele>
        <time>2018-12-06T14:19:15Z</time>
      </trkpt>
      <trkpt lat="48.07634" lon="-4.16169">
        <ele>143.39999389648</ele>
        <time>2018-12-06T14:19:32Z</time>
      </trkpt>
      <trkpt lat="48.07638" lon="-4.16181">
        <ele>144.19999694824</ele>
        <time>2018-12-06T14:19:38Z</time>
      </trkpt>
      <trkpt lat="48.07647" lon="-4.16181">
        <ele>143.39999389648</ele>
        <time>2018-12-06T14:19:48Z</time>
      </trkpt>
      <trkpt lat="48.07671" lon="-4.16169">
        <ele>142</ele>
        <time>2018-12-06T14:20:03Z</time>
      </trkpt>
      <trkpt lat="48.07679" lon="-4.16163">
        <ele>142.80000305176</ele>
        <time>2018-12-06T14:20:10Z</time>
      </trkpt>
      <trkpt lat="48.07681" lon="-4.1616">
        <ele>142.80000305176</ele>
        <time>2018-12-06T14:20:13Z</time>
      </trkpt>
      <trkpt lat="48.07689" lon="-4.16159">
        <ele>143.80000305176</ele>
        <time>2018-12-06T14:20:25Z</time>
      </trkpt>
      <trkpt lat="48.07691" lon="-4.16167">
        <ele>142.60000610352</ele>
        <time>2018-12-06T14:20:27Z</time>
      </trkpt>
      <trkpt lat="48.07694" lon="-4.16178">
        <ele>141.60000610352</ele>
        <time>2018-12-06T14:20:31Z</time>
      </trkpt>
      <trkpt lat="48.07705" lon="-4.16211">
        <ele>138.39999389648</ele>
        <time>2018-12-06T14:20:44Z</time>
      </trkpt>
      <trkpt lat="48.07706" lon="-4.16213">
        <ele>138.39999389648</ele>
        <time>2018-12-06T14:20:45Z</time>
      </trkpt>
      <trkpt lat="48.07698" lon="-4.16226">
        <ele>138.39999389648</ele>
        <time>2018-12-06T14:20:53Z</time>
      </trkpt>
      <trkpt lat="48.07684" lon="-4.16242">
        <ele>138.39999389648</ele>
        <time>2018-12-06T14:21:06Z</time>
      </trkpt>
      <trkpt lat="48.07683" lon="-4.16243">
        <ele>138.39999389648</ele>
        <time>2018-12-06T14:21:07Z</time>
      </trkpt>
      <trkpt lat="48.07682" lon="-4.16248">
        <ele>137.80000305176</ele>
        <time>2018-12-06T14:21:12Z</time>
      </trkpt>
      <trkpt lat="48.07679" lon="-4.1626">
        <ele>135.80000305176</ele>
        <time>2018-12-06T14:21:22Z</time>
      </trkpt>
      <trkpt lat="48.07682" lon="-4.16305">
        <ele>130.19999694824</ele>
        <time>2018-12-06T14:21:44Z</time>
      </trkpt>
      <trkpt lat="48.07686" lon="-4.16334">
        <ele>127.40000152588</ele>
        <time>2018-12-06T14:22:01Z</time>
      </trkpt>
      <trkpt lat="48.07696" lon="-4.16386">
        <ele>119.80000305176</ele>
        <time>2018-12-06T14:22:27Z</time>
      </trkpt>
      <trkpt lat="48.07701" lon="-4.16411">
        <ele>116.80000305176</ele>
        <time>2018-12-06T14:22:48Z</time>
      </trkpt>
      <trkpt lat="48.07703" lon="-4.16448">
        <ele>115.19999694824</ele>
        <time>2018-12-06T14:23:12Z</time>
      </trkpt>
      <trkpt lat="48.07713" lon="-4.16465">
        <ele>115</ele>
        <time>2018-12-06T14:23:26Z</time>
      </trkpt>
      <trkpt lat="48.07727" lon="-4.16473">
        <ele>114.80000305176</ele>
        <time>2018-12-06T14:23:41Z</time>
      </trkpt>
      <trkpt lat="48.07728" lon="-4.16473">
        <ele>115</ele>
        <time>2018-12-06T14:23:42Z</time>
      </trkpt>
      <trkpt lat="48.07746" lon="-4.16488">
        <ele>116.80000305176</ele>
        <time>2018-12-06T14:24:01Z</time>
      </trkpt>
      <trkpt lat="48.07767" lon="-4.165">
        <ele>120.80000305176</ele>
        <time>2018-12-06T14:24:24Z</time>
      </trkpt>
      <trkpt lat="48.07772" lon="-4.16505">
        <ele>122</ele>
        <time>2018-12-06T14:24:32Z</time>
      </trkpt>
      <trkpt lat="48.07779" lon="-4.1651">
        <ele>122.59999847412</ele>
        <time>2018-12-06T14:24:41Z</time>
      </trkpt>
      <trkpt lat="48.07804" lon="-4.16531">
        <ele>125.59999847412</ele>
        <time>2018-12-06T14:25:09Z</time>
      </trkpt>
      <trkpt lat="48.07818" lon="-4.1654">
        <ele>126.40000152588</ele>
        <time>2018-12-06T14:25:17Z</time>
      </trkpt>
      <trkpt lat="48.07851" lon="-4.16565">
        <ele>127.40000152588</ele>
        <time>2018-12-06T14:25:44Z</time>
      </trkpt>
      <trkpt lat="48.07864" lon="-4.16576">
        <ele>128.80000305176</ele>
        <time>2018-12-06T14:25:59Z</time>
      </trkpt>
      <trkpt lat="48.07888" lon="-4.1659">
        <ele>129.39999389648</ele>
        <time>2018-12-06T14:26:20Z</time>
      </trkpt>
      <trkpt lat="48.07906" lon="-4.16603">
        <ele>128.19999694824</ele>
        <time>2018-12-06T14:26:40Z</time>
      </trkpt>
      <trkpt lat="48.07908" lon="-4.16604">
        <ele>127.80000305176</ele>
        <time>2018-12-06T14:26:44Z</time>
      </trkpt>
      <trkpt lat="48.07935" lon="-4.1662">
        <ele>124</ele>
        <time>2018-12-06T14:27:06Z</time>
      </trkpt>
      <trkpt lat="48.07955" lon="-4.16649">
        <ele>121.19999694824</ele>
        <time>2018-12-06T14:27:24Z</time>
      </trkpt>
      <trkpt lat="48.07965" lon="-4.16671">
        <ele>121.40000152588</ele>
        <time>2018-12-06T14:27:39Z</time>
      </trkpt>
      <trkpt lat="48.07973" lon="-4.16689">
        <ele>121.80000305176</ele>
        <time>2018-12-06T14:27:51Z</time>
      </trkpt>
      <trkpt lat="48.07988" lon="-4.1672">
        <ele>121.59999847412</ele>
        <time>2018-12-06T14:28:13Z</time>
      </trkpt>
      <trkpt lat="48.07998" lon="-4.16748">
        <ele>120.80000305176</ele>
        <time>2018-12-06T14:28:34Z</time>
      </trkpt>
      <trkpt lat="48.08008" lon="-4.16765">
        <ele>120.80000305176</ele>
        <time>2018-12-06T14:28:43Z</time>
      </trkpt>
      <trkpt lat="48.08017" lon="-4.16789">
        <ele>120.59999847412</ele>
        <time>2018-12-06T14:29:00Z</time>
      </trkpt>
      <trkpt lat="48.08031" lon="-4.16816">
        <ele>121</ele>
        <time>2018-12-06T14:29:19Z</time>
      </trkpt>
      <trkpt lat="48.08047" lon="-4.16862">
        <ele>123.19999694824</ele>
        <time>2018-12-06T14:29:46Z</time>
      </trkpt>
      <trkpt lat="48.08055" lon="-4.16896">
        <ele>125.59999847412</ele>
        <time>2018-12-06T14:30:07Z</time>
      </trkpt>
      <trkpt lat="48.08055" lon="-4.16898">
        <ele>125.59999847412</ele>
        <time>2018-12-06T14:30:08Z</time>
      </trkpt>
      <trkpt lat="48.08068" lon="-4.1693">
        <ele>123.80000305176</ele>
        <time>2018-12-06T14:30:25Z</time>
      </trkpt>
      <trkpt lat="48.08076" lon="-4.16953">
        <ele>122.40000152588</ele>
        <time>2018-12-06T14:30:41Z</time>
      </trkpt>
      <trkpt lat="48.08089" lon="-4.16989">
        <ele>121.80000305176</ele>
        <time>2018-12-06T14:31:03Z</time>
      </trkpt>
      <trkpt lat="48.08098" lon="-4.17013">
        <ele>119.40000152588</ele>
        <time>2018-12-06T14:31:16Z</time>
      </trkpt>
      <trkpt lat="48.08103" lon="-4.17031">
        <ele>119.40000152588</ele>
        <time>2018-12-06T14:31:26Z</time>
      </trkpt>
      <trkpt lat="48.08104" lon="-4.17032">
        <ele>119.40000152588</ele>
        <time>2018-12-06T14:31:27Z</time>
      </trkpt>
      <trkpt lat="48.08104" lon="-4.17034">
        <ele>119.40000152588</ele>
        <time>2018-12-06T14:31:28Z</time>
      </trkpt>
      <trkpt lat="48.08105" lon="-4.17035">
        <ele>119.19999694824</ele>
        <time>2018-12-06T14:31:29Z</time>
      </trkpt>
      <trkpt lat="48.08106" lon="-4.17036">
        <ele>119.19999694824</ele>
        <time>2018-12-06T14:31:30Z</time>
      </trkpt>
      <trkpt lat="48.08107" lon="-4.17037">
        <ele>119</ele>
        <time>2018-12-06T14:31:31Z</time>
      </trkpt>
      <trkpt lat="48.08107" lon="-4.17039">
        <ele>119.19999694824</ele>
        <time>2018-12-06T14:31:32Z</time>
      </trkpt>
      <trkpt lat="48.08107" lon="-4.17041">
        <ele>119.19999694824</ele>
        <time>2018-12-06T14:31:33Z</time>
      </trkpt>
      <trkpt lat="48.08107" lon="-4.17043">
        <ele>119.19999694824</ele>
        <time>2018-12-06T14:31:34Z</time>
      </trkpt>
      <trkpt lat="48.08107" lon="-4.17045">
        <ele>119.40000152588</ele>
        <time>2018-12-06T14:31:35Z</time>
      </trkpt>
      <trkpt lat="48.08114" lon="-4.17069">
        <ele>119</ele>
        <time>2018-12-06T14:31:49Z</time>
      </trkpt>
      <trkpt lat="48.08117" lon="-4.1708">
        <ele>118.80000305176</ele>
        <time>2018-12-06T14:31:56Z</time>
      </trkpt>
      <trkpt lat="48.08122" lon="-4.17102">
        <ele>114.40000152588</ele>
        <time>2018-12-06T14:32:12Z</time>
      </trkpt>
      <trkpt lat="48.08122" lon="-4.17104">
        <ele>114</ele>
        <time>2018-12-06T14:32:13Z</time>
      </trkpt>
      <trkpt lat="48.08123" lon="-4.17105">
        <ele>113.59999847412</ele>
        <time>2018-12-06T14:32:14Z</time>
      </trkpt>
      <trkpt lat="48.08122" lon="-4.17113">
        <ele>112.40000152588</ele>
        <time>2018-12-06T14:32:18Z</time>
      </trkpt>
      <trkpt lat="48.08123" lon="-4.17114">
        <ele>112.59999847412</ele>
        <time>2018-12-06T14:32:19Z</time>
      </trkpt>
      <trkpt lat="48.08143" lon="-4.17122">
        <ele>110.80000305176</ele>
        <time>2018-12-06T14:32:34Z</time>
      </trkpt>
      <trkpt lat="48.08145" lon="-4.17123">
        <ele>110.59999847412</ele>
        <time>2018-12-06T14:32:35Z</time>
      </trkpt>
      <trkpt lat="48.08146" lon="-4.17126">
        <ele>111</ele>
        <time>2018-12-06T14:32:36Z</time>
      </trkpt>
      <trkpt lat="48.08147" lon="-4.17127">
        <ele>111.19999694824</ele>
        <time>2018-12-06T14:32:37Z</time>
      </trkpt>
      <trkpt lat="48.08148" lon="-4.17128">
        <ele>111.19999694824</ele>
        <time>2018-12-06T14:32:38Z</time>
      </trkpt>
      <trkpt lat="48.08148" lon="-4.17129">
        <ele>111</ele>
        <time>2018-12-06T14:32:39Z</time>
      </trkpt>
      <trkpt lat="48.08149" lon="-4.1713">
        <ele>111</ele>
        <time>2018-12-06T14:32:40Z</time>
      </trkpt>
      <trkpt lat="48.08149" lon="-4.17132">
        <ele>110.80000305176</ele>
        <time>2018-12-06T14:32:41Z</time>
      </trkpt>
      <trkpt lat="48.08149" lon="-4.17134">
        <ele>110.80000305176</ele>
        <time>2018-12-06T14:32:42Z</time>
      </trkpt>
      <trkpt lat="48.08165" lon="-4.17157">
        <ele>110</ele>
        <time>2018-12-06T14:33:00Z</time>
      </trkpt>
      <trkpt lat="48.08181" lon="-4.17164">
        <ele>111.40000152588</ele>
        <time>2018-12-06T14:33:13Z</time>
      </trkpt>
      <trkpt lat="48.08199" lon="-4.17168">
        <ele>114.19999694824</ele>
        <time>2018-12-06T14:33:28Z</time>
      </trkpt>
      <trkpt lat="48.082" lon="-4.17168">
        <ele>114.80000305176</ele>
        <time>2018-12-06T14:33:29Z</time>
      </trkpt>
      <trkpt lat="48.08201" lon="-4.17168">
        <ele>113.59999847412</ele>
        <time>2018-12-06T14:33:30Z</time>
      </trkpt>
      <trkpt lat="48.08202" lon="-4.17168">
        <ele>113.40000152588</ele>
        <time>2018-12-06T14:33:31Z</time>
      </trkpt>
      <trkpt lat="48.08203" lon="-4.17169">
        <ele>113.40000152588</ele>
        <time>2018-12-06T14:33:32Z</time>
      </trkpt>
      <trkpt lat="48.08204" lon="-4.17169">
        <ele>113.40000152588</ele>
        <time>2018-12-06T14:33:33Z</time>
      </trkpt>
      <trkpt lat="48.08223" lon="-4.17169">
        <ele>114.40000152588</ele>
        <time>2018-12-06T14:33:49Z</time>
      </trkpt>
      <trkpt lat="48.08225" lon="-4.1717">
        <ele>115</ele>
        <time>2018-12-06T14:33:51Z</time>
      </trkpt>
      <trkpt lat="48.08226" lon="-4.1717">
        <ele>115.19999694824</ele>
        <time>2018-12-06T14:33:52Z</time>
      </trkpt>
      <trkpt lat="48.08241" lon="-4.17164">
        <ele>114.40000152588</ele>
        <time>2018-12-06T14:34:06Z</time>
      </trkpt>
      <trkpt lat="48.08242" lon="-4.17163">
        <ele>114</ele>
        <time>2018-12-06T14:34:07Z</time>
      </trkpt>
      <trkpt lat="48.08243" lon="-4.17162">
        <ele>113.59999847412</ele>
        <time>2018-12-06T14:34:09Z</time>
      </trkpt>
      <trkpt lat="48.08257" lon="-4.17158">
        <ele>111</ele>
        <time>2018-12-06T14:34:25Z</time>
      </trkpt>
      <trkpt lat="48.0827" lon="-4.17154">
        <ele>115.19999694824</ele>
        <time>2018-12-06T14:34:38Z</time>
      </trkpt>
      <trkpt lat="48.08281" lon="-4.17149">
        <ele>119.80000305176</ele>
        <time>2018-12-06T14:34:51Z</time>
      </trkpt>
      <trkpt lat="48.08293" lon="-4.17151">
        <ele>122.80000305176</ele>
        <time>2018-12-06T14:35:02Z</time>
      </trkpt>
      <trkpt lat="48.08305" lon="-4.17166">
        <ele>125.19999694824</ele>
        <time>2018-12-06T14:35:18Z</time>
      </trkpt>
      <trkpt lat="48.08319" lon="-4.17184">
        <ele>127.40000152588</ele>
        <time>2018-12-06T14:35:35Z</time>
      </trkpt>
      <trkpt lat="48.08328" lon="-4.17201">
        <ele>129.60000610352</ele>
        <time>2018-12-06T14:35:48Z</time>
      </trkpt>
      <trkpt lat="48.0834" lon="-4.17216">
        <ele>130</ele>
        <time>2018-12-06T14:36:02Z</time>
      </trkpt>
      <trkpt lat="48.08355" lon="-4.17237">
        <ele>130.60000610352</ele>
        <time>2018-12-06T14:36:21Z</time>
      </trkpt>
      <trkpt lat="48.08368" lon="-4.17259">
        <ele>130.39999389648</ele>
        <time>2018-12-06T14:36:38Z</time>
      </trkpt>
      <trkpt lat="48.0838" lon="-4.17278">
        <ele>130.19999694824</ele>
        <time>2018-12-06T14:36:53Z</time>
      </trkpt>
      <trkpt lat="48.08388" lon="-4.17294">
        <ele>130.60000610352</ele>
        <time>2018-12-06T14:37:05Z</time>
      </trkpt>
      <trkpt lat="48.08401" lon="-4.17324">
        <ele>131.80000305176</ele>
        <time>2018-12-06T14:37:25Z</time>
      </trkpt>
      <trkpt lat="48.08411" lon="-4.17357">
        <ele>131.39999389648</ele>
        <time>2018-12-06T14:37:43Z</time>
      </trkpt>
      <trkpt lat="48.08415" lon="-4.17369">
        <ele>132.39999389648</ele>
        <time>2018-12-06T14:37:52Z</time>
      </trkpt>
      <trkpt lat="48.08417" lon="-4.17375">
        <ele>133.39999389648</ele>
        <time>2018-12-06T14:37:56Z</time>
      </trkpt>
      <trkpt lat="48.08426" lon="-4.17404">
        <ele>133.80000305176</ele>
        <time>2018-12-06T14:38:13Z</time>
      </trkpt>
      <trkpt lat="48.08436" lon="-4.17431">
        <ele>134</ele>
        <time>2018-12-06T14:38:31Z</time>
      </trkpt>
      <trkpt lat="48.08444" lon="-4.17458">
        <ele>135.80000305176</ele>
        <time>2018-12-06T14:38:47Z</time>
      </trkpt>
      <trkpt lat="48.08452" lon="-4.17488">
        <ele>135.80000305176</ele>
        <time>2018-12-06T14:39:03Z</time>
      </trkpt>
      <trkpt lat="48.0846" lon="-4.17513">
        <ele>136.80000305176</ele>
        <time>2018-12-06T14:39:18Z</time>
      </trkpt>
      <trkpt lat="48.08468" lon="-4.17538">
        <ele>137.39999389648</ele>
        <time>2018-12-06T14:39:34Z</time>
      </trkpt>
      <trkpt lat="48.08479" lon="-4.17581">
        <ele>140.80000305176</ele>
        <time>2018-12-06T14:39:58Z</time>
      </trkpt>
      <trkpt lat="48.08487" lon="-4.17605">
        <ele>143.39999389648</ele>
        <time>2018-12-06T14:40:10Z</time>
      </trkpt>
      <trkpt lat="48.08488" lon="-4.17611">
        <ele>144.19999694824</ele>
        <time>2018-12-06T14:40:13Z</time>
      </trkpt>
      <trkpt lat="48.08497" lon="-4.17636">
        <ele>147.39999389648</ele>
        <time>2018-12-06T14:40:27Z</time>
      </trkpt>
      <trkpt lat="48.08497" lon="-4.17666">
        <ele>148.19999694824</ele>
        <time>2018-12-06T14:40:43Z</time>
      </trkpt>
      <trkpt lat="48.08503" lon="-4.17689">
        <ele>146.60000610352</ele>
        <time>2018-12-06T14:40:56Z</time>
      </trkpt>
      <trkpt lat="48.08513" lon="-4.17715">
        <ele>145.19999694824</ele>
        <time>2018-12-06T14:41:12Z</time>
      </trkpt>
      <trkpt lat="48.08515" lon="-4.17722">
        <ele>145.39999389648</ele>
        <time>2018-12-06T14:41:16Z</time>
      </trkpt>
      <trkpt lat="48.08514" lon="-4.17746">
        <ele>146.19999694824</ele>
        <time>2018-12-06T14:41:29Z</time>
      </trkpt>
      <trkpt lat="48.08519" lon="-4.17777">
        <ele>143.39999389648</ele>
        <time>2018-12-06T14:41:47Z</time>
      </trkpt>
      <trkpt lat="48.0852" lon="-4.17779">
        <ele>143.19999694824</ele>
        <time>2018-12-06T14:41:49Z</time>
      </trkpt>
      <trkpt lat="48.08522" lon="-4.17783">
        <ele>143.19999694824</ele>
        <time>2018-12-06T14:41:52Z</time>
      </trkpt>
      <trkpt lat="48.08524" lon="-4.1779">
        <ele>143</ele>
        <time>2018-12-06T14:41:56Z</time>
      </trkpt>
      <trkpt lat="48.08533" lon="-4.17813">
        <ele>142.80000305176</ele>
        <time>2018-12-06T14:42:11Z</time>
      </trkpt>
      <trkpt lat="48.08536" lon="-4.17819">
        <ele>142.80000305176</ele>
        <time>2018-12-06T14:42:20Z</time>
      </trkpt>
      <trkpt lat="48.08549" lon="-4.17826">
        <ele>142</ele>
        <time>2018-12-06T14:42:41Z</time>
      </trkpt>
      <trkpt lat="48.0858" lon="-4.17827">
        <ele>139.39999389648</ele>
        <time>2018-12-06T14:43:04Z</time>
      </trkpt>
      <trkpt lat="48.08586" lon="-4.17828">
        <ele>139.19999694824</ele>
        <time>2018-12-06T14:43:12Z</time>
      </trkpt>
      <trkpt lat="48.08609" lon="-4.17829">
        <ele>139.60000610352</ele>
        <time>2018-12-06T14:43:35Z</time>
      </trkpt>
      <trkpt lat="48.08625" lon="-4.1783">
        <ele>138.60000610352</ele>
        <time>2018-12-06T14:43:53Z</time>
      </trkpt>
      <trkpt lat="48.08649" lon="-4.17823">
        <ele>136.19999694824</ele>
        <time>2018-12-06T14:44:17Z</time>
      </trkpt>
      <trkpt lat="48.08667" lon="-4.1782">
        <ele>134.19999694824</ele>
        <time>2018-12-06T14:44:33Z</time>
      </trkpt>
      <trkpt lat="48.08694" lon="-4.17815">
        <ele>131.80000305176</ele>
        <time>2018-12-06T14:44:55Z</time>
      </trkpt>
      <trkpt lat="48.08713" lon="-4.17814">
        <ele>129.19999694824</ele>
        <time>2018-12-06T14:45:11Z</time>
      </trkpt>
      <trkpt lat="48.08735" lon="-4.17808">
        <ele>130.39999389648</ele>
        <time>2018-12-06T14:45:33Z</time>
      </trkpt>
      <trkpt lat="48.08753" lon="-4.17803">
        <ele>130.19999694824</ele>
        <time>2018-12-06T14:45:54Z</time>
      </trkpt>
      <trkpt lat="48.08754" lon="-4.17803">
        <ele>130.39999389648</ele>
        <time>2018-12-06T14:45:55Z</time>
      </trkpt>
      <trkpt lat="48.08785" lon="-4.17802">
        <ele>127.80000305176</ele>
        <time>2018-12-06T14:46:17Z</time>
      </trkpt>
      <trkpt lat="48.08797" lon="-4.17798">
        <ele>127</ele>
        <time>2018-12-06T14:46:22Z</time>
      </trkpt>
      <trkpt lat="48.08823" lon="-4.17788">
        <ele>132.80000305176</ele>
        <time>2018-12-06T14:46:44Z</time>
      </trkpt>
      <trkpt lat="48.08843" lon="-4.17784">
        <ele>134.19999694824</ele>
        <time>2018-12-06T14:46:54Z</time>
      </trkpt>
      <trkpt lat="48.08858" lon="-4.17789">
        <ele>136.19999694824</ele>
        <time>2018-12-06T14:47:03Z</time>
      </trkpt>
      <trkpt lat="48.08862" lon="-4.17792">
        <ele>137.60000610352</ele>
        <time>2018-12-06T14:47:18Z</time>
      </trkpt>
      <trkpt lat="48.08868" lon="-4.17792">
        <ele>140.80000305176</ele>
        <time>2018-12-06T14:48:03Z</time>
      </trkpt>
      <trkpt lat="48.08875" lon="-4.1779">
        <ele>143.19999694824</ele>
        <time>2018-12-06T14:48:24Z</time>
      </trkpt>
      <trkpt lat="48.08897" lon="-4.17771">
        <ele>143.39999389648</ele>
        <time>2018-12-06T14:48:43Z</time>
      </trkpt>
      <trkpt lat="48.08915" lon="-4.17759">
        <ele>141.39999389648</ele>
        <time>2018-12-06T14:49:00Z</time>
      </trkpt>
      <trkpt lat="48.08933" lon="-4.17745">
        <ele>143.19999694824</ele>
        <time>2018-12-06T14:49:16Z</time>
      </trkpt>
      <trkpt lat="48.08948" lon="-4.17727">
        <ele>143</ele>
        <time>2018-12-06T14:49:30Z</time>
      </trkpt>
      <trkpt lat="48.08969" lon="-4.17709">
        <ele>145.19999694824</ele>
        <time>2018-12-06T14:49:48Z</time>
      </trkpt>
      <trkpt lat="48.08989" lon="-4.17691">
        <ele>149.19999694824</ele>
        <time>2018-12-06T14:50:07Z</time>
      </trkpt>
      <trkpt lat="48.09006" lon="-4.17673">
        <ele>152.80000305176</ele>
        <time>2018-12-06T14:50:24Z</time>
      </trkpt>
      <trkpt lat="48.09027" lon="-4.17653">
        <ele>152.80000305176</ele>
        <time>2018-12-06T14:50:43Z</time>
      </trkpt>
      <trkpt lat="48.09043" lon="-4.17633">
        <ele>153.19999694824</ele>
        <time>2018-12-06T14:51:00Z</time>
      </trkpt>
      <trkpt lat="48.09061" lon="-4.17615">
        <ele>154.39999389648</ele>
        <time>2018-12-06T14:51:16Z</time>
      </trkpt>
      <trkpt lat="48.09082" lon="-4.17596">
        <ele>157</ele>
        <time>2018-12-06T14:51:35Z</time>
      </trkpt>
      <trkpt lat="48.09101" lon="-4.17577">
        <ele>157</ele>
        <time>2018-12-06T14:51:53Z</time>
      </trkpt>
      <trkpt lat="48.09104" lon="-4.17575">
        <ele>157.19999694824</ele>
        <time>2018-12-06T14:51:56Z</time>
      </trkpt>
      <trkpt lat="48.09118" lon="-4.1756">
        <ele>159</ele>
        <time>2018-12-06T14:52:11Z</time>
      </trkpt>
      <trkpt lat="48.09123" lon="-4.17553">
        <ele>159.39999389648</ele>
        <time>2018-12-06T14:52:16Z</time>
      </trkpt>
      <trkpt lat="48.09143" lon="-4.17536">
        <ele>158.80000305176</ele>
        <time>2018-12-06T14:52:33Z</time>
      </trkpt>
      <trkpt lat="48.09162" lon="-4.17519">
        <ele>160</ele>
        <time>2018-12-06T14:52:51Z</time>
      </trkpt>
      <trkpt lat="48.09178" lon="-4.17499">
        <ele>159.60000610352</ele>
        <time>2018-12-06T14:53:08Z</time>
      </trkpt>
      <trkpt lat="48.09194" lon="-4.17482">
        <ele>159.80000305176</ele>
        <time>2018-12-06T14:53:25Z</time>
      </trkpt>
      <trkpt lat="48.09219" lon="-4.17455">
        <ele>160.80000305176</ele>
        <time>2018-12-06T14:53:49Z</time>
      </trkpt>
      <trkpt lat="48.09232" lon="-4.17443">
        <ele>162.19999694824</ele>
        <time>2018-12-06T14:54:01Z</time>
      </trkpt>
      <trkpt lat="48.09235" lon="-4.17441">
        <ele>162.80000305176</ele>
        <time>2018-12-06T14:54:04Z</time>
      </trkpt>
      <trkpt lat="48.09253" lon="-4.17419">
        <ele>164.39999389648</ele>
        <time>2018-12-06T14:54:23Z</time>
      </trkpt>
      <trkpt lat="48.09262" lon="-4.17403">
        <ele>166</ele>
        <time>2018-12-06T14:54:34Z</time>
      </trkpt>
      <trkpt lat="48.09276" lon="-4.174">
        <ele>170.60000610352</ele>
        <time>2018-12-06T14:54:53Z</time>
      </trkpt>
      <trkpt lat="48.09297" lon="-4.17408">
        <ele>178.60000610352</ele>
        <time>2018-12-06T14:55:19Z</time>
      </trkpt>
      <trkpt lat="48.09299" lon="-4.17418">
        <ele>180.60000610352</ele>
        <time>2018-12-06T14:55:25Z</time>
      </trkpt>
      <trkpt lat="48.09302" lon="-4.17451">
        <ele>186.39999389648</ele>
        <time>2018-12-06T14:55:47Z</time>
      </trkpt>
      <trkpt lat="48.09311" lon="-4.17456">
        <ele>188.60000610352</ele>
        <time>2018-12-06T14:56:04Z</time>
      </trkpt>
      <trkpt lat="48.09313" lon="-4.17457">
        <ele>188.80000305176</ele>
        <time>2018-12-06T14:56:06Z</time>
      </trkpt>
      <trkpt lat="48.09329" lon="-4.17449">
        <ele>189</ele>
        <time>2018-12-06T14:56:28Z</time>
      </trkpt>
      <trkpt lat="48.09328" lon="-4.1745">
        <ele>186.80000305176</ele>
        <time>2018-12-06T14:56:54Z</time>
      </trkpt>
      <trkpt lat="48.09324" lon="-4.17453">
        <ele>185.80000305176</ele>
        <time>2018-12-06T14:57:17Z</time>
      </trkpt>
      <trkpt lat="48.09321" lon="-4.17454">
        <ele>185.19999694824</ele>
        <time>2018-12-06T14:57:39Z</time>
      </trkpt>
      <trkpt lat="48.09336" lon="-4.17457">
        <ele>185.60000610352</ele>
        <time>2018-12-06T14:57:57Z</time>
      </trkpt>
      <trkpt lat="48.09351" lon="-4.17461">
        <ele>186.19999694824</ele>
        <time>2018-12-06T14:58:11Z</time>
      </trkpt>
      <trkpt lat="48.09367" lon="-4.17466">
        <ele>187.60000610352</ele>
        <time>2018-12-06T14:58:26Z</time>
      </trkpt>
      <trkpt lat="48.09368" lon="-4.17466">
        <ele>187.60000610352</ele>
        <time>2018-12-06T14:58:27Z</time>
      </trkpt>
      <trkpt lat="48.09386" lon="-4.17449">
        <ele>189.80000305176</ele>
        <time>2018-12-06T14:58:46Z</time>
      </trkpt>
      <trkpt lat="48.09401" lon="-4.17431">
        <ele>191.60000610352</ele>
        <time>2018-12-06T14:59:02Z</time>
      </trkpt>
      <trkpt lat="48.09404" lon="-4.17429">
        <ele>191.60000610352</ele>
        <time>2018-12-06T14:59:06Z</time>
      </trkpt>
      <trkpt lat="48.09417" lon="-4.17415">
        <ele>194.80000305176</ele>
        <time>2018-12-06T14:59:21Z</time>
      </trkpt>
      <trkpt lat="48.09422" lon="-4.17421">
        <ele>195.60000610352</ele>
        <time>2018-12-06T14:59:28Z</time>
      </trkpt>
      <trkpt lat="48.09428" lon="-4.17428">
        <ele>196.39999389648</ele>
        <time>2018-12-06T14:59:35Z</time>
      </trkpt>
      <trkpt lat="48.0944" lon="-4.17443">
        <ele>197.39999389648</ele>
        <time>2018-12-06T14:59:50Z</time>
      </trkpt>
      <trkpt lat="48.09444" lon="-4.1745">
        <ele>197.19999694824</ele>
        <time>2018-12-06T15:00:07Z</time>
      </trkpt>
      <trkpt lat="48.09449" lon="-4.17463">
        <ele>197</ele>
        <time>2018-12-06T15:00:22Z</time>
      </trkpt>
      <trkpt lat="48.0946" lon="-4.17489">
        <ele>198</ele>
        <time>2018-12-06T15:00:40Z</time>
      </trkpt>
      <trkpt lat="48.09462" lon="-4.17492">
        <ele>198.19999694824</ele>
        <time>2018-12-06T15:00:44Z</time>
      </trkpt>
      <trkpt lat="48.09472" lon="-4.17514">
        <ele>199.19999694824</ele>
        <time>2018-12-06T15:01:06Z</time>
      </trkpt>
      <trkpt lat="48.09485" lon="-4.17538">
        <ele>200.60000610352</ele>
        <time>2018-12-06T15:01:18Z</time>
      </trkpt>
      <trkpt lat="48.09497" lon="-4.17546">
        <ele>201.19999694824</ele>
        <time>2018-12-06T15:01:35Z</time>
      </trkpt>
      <trkpt lat="48.09505" lon="-4.17563">
        <ele>200.19999694824</ele>
        <time>2018-12-06T15:01:48Z</time>
      </trkpt>
      <trkpt lat="48.09518" lon="-4.17567">
        <ele>194.39999389648</ele>
        <time>2018-12-06T15:01:59Z</time>
      </trkpt>
      <trkpt lat="48.09523" lon="-4.17564">
        <ele>190.80000305176</ele>
        <time>2018-12-06T15:02:13Z</time>
      </trkpt>
      <trkpt lat="48.09524" lon="-4.17564">
        <ele>190.60000610352</ele>
        <time>2018-12-06T15:02:14Z</time>
      </trkpt>
      <trkpt lat="48.09523" lon="-4.17583">
        <ele>185.39999389648</ele>
        <time>2018-12-06T15:02:33Z</time>
      </trkpt>
      <trkpt lat="48.09527" lon="-4.17599">
        <ele>182</ele>
        <time>2018-12-06T15:02:45Z</time>
      </trkpt>
      <trkpt lat="48.09535" lon="-4.17612">
        <ele>179.80000305176</ele>
        <time>2018-12-06T15:03:07Z</time>
      </trkpt>
      <trkpt lat="48.09539" lon="-4.17616">
        <ele>179.60000610352</ele>
        <time>2018-12-06T15:03:16Z</time>
      </trkpt>
      <trkpt lat="48.0955" lon="-4.17622">
        <ele>179.80000305176</ele>
        <time>2018-12-06T15:03:27Z</time>
      </trkpt>
      <trkpt lat="48.09566" lon="-4.17639">
        <ele>179.60000610352</ele>
        <time>2018-12-06T15:03:44Z</time>
      </trkpt>
      <trkpt lat="48.09572" lon="-4.1766">
        <ele>179.39999389648</ele>
        <time>2018-12-06T15:04:05Z</time>
      </trkpt>
      <trkpt lat="48.09578" lon="-4.1768">
        <ele>178.60000610352</ele>
        <time>2018-12-06T15:04:21Z</time>
      </trkpt>
      <trkpt lat="48.09582" lon="-4.17698">
        <ele>178.19999694824</ele>
        <time>2018-12-06T15:04:36Z</time>
      </trkpt>
      <trkpt lat="48.0959" lon="-4.1771">
        <ele>178.19999694824</ele>
        <time>2018-12-06T15:04:57Z</time>
      </trkpt>
      <trkpt lat="48.09598" lon="-4.17737">
        <ele>179.19999694824</ele>
        <time>2018-12-06T15:05:26Z</time>
      </trkpt>
      <trkpt lat="48.09601" lon="-4.17748">
        <ele>179</ele>
        <time>2018-12-06T15:05:43Z</time>
      </trkpt>
      <trkpt lat="48.09601" lon="-4.17749">
        <ele>178.80000305176</ele>
        <time>2018-12-06T15:05:44Z</time>
      </trkpt>
      <trkpt lat="48.09598" lon="-4.17753">
        <ele>178.80000305176</ele>
        <time>2018-12-06T15:05:48Z</time>
      </trkpt>
      <trkpt lat="48.09598" lon="-4.17766">
        <ele>178.80000305176</ele>
        <time>2018-12-06T15:05:58Z</time>
      </trkpt>
      <trkpt lat="48.096" lon="-4.17773">
        <ele>178.60000610352</ele>
        <time>2018-12-06T15:06:06Z</time>
      </trkpt>
      <trkpt lat="48.09605" lon="-4.17776">
        <ele>178.60000610352</ele>
        <time>2018-12-06T15:06:09Z</time>
      </trkpt>
      <trkpt lat="48.09607" lon="-4.1778">
        <ele>178.60000610352</ele>
        <time>2018-12-06T15:06:12Z</time>
      </trkpt>
      <trkpt lat="48.09612" lon="-4.17785">
        <ele>178.19999694824</ele>
        <time>2018-12-06T15:06:21Z</time>
      </trkpt>
      <trkpt lat="48.09619" lon="-4.17795">
        <ele>177.60000610352</ele>
        <time>2018-12-06T15:06:35Z</time>
      </trkpt>
      <trkpt lat="48.09618" lon="-4.17796">
        <ele>177.39999389648</ele>
        <time>2018-12-06T15:06:39Z</time>
      </trkpt>
      <trkpt lat="48.09616" lon="-4.17797">
        <ele>177.60000610352</ele>
        <time>2018-12-06T15:06:43Z</time>
      </trkpt>
      <trkpt lat="48.09619" lon="-4.17805">
        <ele>178</ele>
        <time>2018-12-06T15:06:48Z</time>
      </trkpt>
      <trkpt lat="48.09627" lon="-4.17822">
        <ele>179.19999694824</ele>
        <time>2018-12-06T15:07:03Z</time>
      </trkpt>
      <trkpt lat="48.09629" lon="-4.17837">
        <ele>180</ele>
        <time>2018-12-06T15:07:22Z</time>
      </trkpt>
      <trkpt lat="48.09633" lon="-4.17857">
        <ele>181.19999694824</ele>
        <time>2018-12-06T15:07:39Z</time>
      </trkpt>
      <trkpt lat="48.09634" lon="-4.1787">
        <ele>182.19999694824</ele>
        <time>2018-12-06T15:07:55Z</time>
      </trkpt>
      <trkpt lat="48.09646" lon="-4.17886">
        <ele>184</ele>
        <time>2018-12-06T15:08:08Z</time>
      </trkpt>
      <trkpt lat="48.09648" lon="-4.17906">
        <ele>187.39999389648</ele>
        <time>2018-12-06T15:08:31Z</time>
      </trkpt>
      <trkpt lat="48.09646" lon="-4.17909">
        <ele>187.80000305176</ele>
        <time>2018-12-06T15:08:35Z</time>
      </trkpt>
      <trkpt lat="48.09643" lon="-4.17913">
        <ele>188.60000610352</ele>
        <time>2018-12-06T15:08:40Z</time>
      </trkpt>
      <trkpt lat="48.09646" lon="-4.17916">
        <ele>188.80000305176</ele>
        <time>2018-12-06T15:08:42Z</time>
      </trkpt>
      <trkpt lat="48.09656" lon="-4.17928">
        <ele>190.39999389648</ele>
        <time>2018-12-06T15:08:55Z</time>
      </trkpt>
      <trkpt lat="48.09655" lon="-4.17931">
        <ele>190.80000305176</ele>
        <time>2018-12-06T15:08:58Z</time>
      </trkpt>
      <trkpt lat="48.09655" lon="-4.1794">
        <ele>191.80000305176</ele>
        <time>2018-12-06T15:09:07Z</time>
      </trkpt>
      <trkpt lat="48.09665" lon="-4.17949">
        <ele>193</ele>
        <time>2018-12-06T15:09:20Z</time>
      </trkpt>
      <trkpt lat="48.09667" lon="-4.17964">
        <ele>196.39999389648</ele>
        <time>2018-12-06T15:09:34Z</time>
      </trkpt>
      <trkpt lat="48.09667" lon="-4.1797">
        <ele>198.19999694824</ele>
        <time>2018-12-06T15:09:40Z</time>
      </trkpt>
      <trkpt lat="48.09668" lon="-4.17978">
        <ele>199.80000305176</ele>
        <time>2018-12-06T15:09:46Z</time>
      </trkpt>
      <trkpt lat="48.097" lon="-4.17999">
        <ele>204.80000305176</ele>
        <time>2018-12-06T15:10:05Z</time>
      </trkpt>
      <trkpt lat="48.097" lon="-4.18001">
        <ele>205</ele>
        <time>2018-12-06T15:10:07Z</time>
      </trkpt>
      <trkpt lat="48.09716" lon="-4.18001">
        <ele>220.60000610352</ele>
        <time>2018-12-06T15:10:44Z</time>
      </trkpt>
      <trkpt lat="48.09745" lon="-4.18013">
        <ele>231.39999389648</ele>
        <time>2018-12-06T15:11:08Z</time>
      </trkpt>
      <trkpt lat="48.09753" lon="-4.18012">
        <ele>232.80000305176</ele>
        <time>2018-12-06T15:11:13Z</time>
      </trkpt>
      <trkpt lat="48.09758" lon="-4.18023">
        <ele>238.39999389648</ele>
        <time>2018-12-06T15:11:41Z</time>
      </trkpt>
      <trkpt lat="48.09783" lon="-4.18027">
        <ele>247.39999389648</ele>
        <time>2018-12-06T15:11:59Z</time>
      </trkpt>
      <trkpt lat="48.09799" lon="-4.18034">
        <ele>254</ele>
        <time>2018-12-06T15:12:09Z</time>
      </trkpt>
      <trkpt lat="48.09807" lon="-4.18036">
        <ele>256.20001220703</ele>
        <time>2018-12-06T15:12:13Z</time>
      </trkpt>
      <trkpt lat="48.09818" lon="-4.18035">
        <ele>262</ele>
        <time>2018-12-06T15:12:20Z</time>
      </trkpt>
      <trkpt lat="48.09838" lon="-4.18036">
        <ele>271.60000610352</ele>
        <time>2018-12-06T15:12:35Z</time>
      </trkpt>
      <trkpt lat="48.09858" lon="-4.18037">
        <ele>281</ele>
        <time>2018-12-06T15:12:48Z</time>
      </trkpt>
      <trkpt lat="48.09882" lon="-4.18048">
        <ele>286</ele>
        <time>2018-12-06T15:13:04Z</time>
      </trkpt>
      <trkpt lat="48.09887" lon="-4.18052">
        <ele>285.60000610352</ele>
        <time>2018-12-06T15:13:08Z</time>
      </trkpt>
      <trkpt lat="48.09892" lon="-4.18054">
        <ele>285.79998779297</ele>
        <time>2018-12-06T15:13:12Z</time>
      </trkpt>
      <trkpt lat="48.09896" lon="-4.18062">
        <ele>284.20001220703</ele>
        <time>2018-12-06T15:13:18Z</time>
      </trkpt>
      <trkpt lat="48.09893" lon="-4.18082">
        <ele>283.60000610352</ele>
        <time>2018-12-06T15:13:29Z</time>
      </trkpt>
      <trkpt lat="48.09894" lon="-4.18086">
        <ele>284.20001220703</ele>
        <time>2018-12-06T15:13:31Z</time>
      </trkpt>
      <trkpt lat="48.0989" lon="-4.18114">
        <ele>285</ele>
        <time>2018-12-06T15:13:45Z</time>
      </trkpt>
      <trkpt lat="48.0989" lon="-4.18141">
        <ele>283.39999389648</ele>
        <time>2018-12-06T15:14:02Z</time>
      </trkpt>
      <trkpt lat="48.09888" lon="-4.1815">
        <ele>282.60000610352</ele>
        <time>2018-12-06T15:14:07Z</time>
      </trkpt>
      <trkpt lat="48.09888" lon="-4.18173">
        <ele>281</ele>
        <time>2018-12-06T15:14:20Z</time>
      </trkpt>
      <trkpt lat="48.09889" lon="-4.18182">
        <ele>280.60000610352</ele>
        <time>2018-12-06T15:14:25Z</time>
      </trkpt>
      <trkpt lat="48.0989" lon="-4.18187">
        <ele>280.79998779297</ele>
        <time>2018-12-06T15:14:28Z</time>
      </trkpt>
      <trkpt lat="48.09891" lon="-4.18212">
        <ele>282.39999389648</ele>
        <time>2018-12-06T15:14:41Z</time>
      </trkpt>
      <trkpt lat="48.09894" lon="-4.18222">
        <ele>283</ele>
        <time>2018-12-06T15:14:46Z</time>
      </trkpt>
      <trkpt lat="48.09892" lon="-4.18238">
        <ele>284.60000610352</ele>
        <time>2018-12-06T15:14:54Z</time>
      </trkpt>
      <trkpt lat="48.09891" lon="-4.18245">
        <ele>286</ele>
        <time>2018-12-06T15:14:58Z</time>
      </trkpt>
      <trkpt lat="48.09887" lon="-4.18276">
        <ele>291.60000610352</ele>
        <time>2018-12-06T15:15:12Z</time>
      </trkpt>
      <trkpt lat="48.09885" lon="-4.18288">
        <ele>295.20001220703</ele>
        <time>2018-12-06T15:15:21Z</time>
      </trkpt>
      <trkpt lat="48.09884" lon="-4.1829">
        <ele>295.39999389648</ele>
        <time>2018-12-06T15:15:22Z</time>
      </trkpt>
      <trkpt lat="48.09884" lon="-4.18291">
        <ele>295.60000610352</ele>
        <time>2018-12-06T15:15:23Z</time>
      </trkpt>
      <trkpt lat="48.09883" lon="-4.18293">
        <ele>295.79998779297</ele>
        <time>2018-12-06T15:15:24Z</time>
      </trkpt>
      <trkpt lat="48.09881" lon="-4.18294">
        <ele>295.20001220703</ele>
        <time>2018-12-06T15:15:25Z</time>
      </trkpt>
      <trkpt lat="48.0988" lon="-4.18295">
        <ele>295.20001220703</ele>
        <time>2018-12-06T15:15:26Z</time>
      </trkpt>
      <trkpt lat="48.09879" lon="-4.18297">
        <ele>295.39999389648</ele>
        <time>2018-12-06T15:15:27Z</time>
      </trkpt>
      <trkpt lat="48.09879" lon="-4.18298">
        <ele>295.60000610352</ele>
        <time>2018-12-06T15:15:28Z</time>
      </trkpt>
      <trkpt lat="48.0988" lon="-4.183">
        <ele>295.79998779297</ele>
        <time>2018-12-06T15:15:29Z</time>
      </trkpt>
      <trkpt lat="48.0988" lon="-4.18302">
        <ele>296.20001220703</ele>
        <time>2018-12-06T15:15:30Z</time>
      </trkpt>
      <trkpt lat="48.09883" lon="-4.18322">
        <ele>301.39999389648</ele>
        <time>2018-12-06T15:15:43Z</time>
      </trkpt>
      <trkpt lat="48.09882" lon="-4.18324">
        <ele>301.79998779297</ele>
        <time>2018-12-06T15:15:44Z</time>
      </trkpt>
      <trkpt lat="48.09882" lon="-4.18326">
        <ele>302</ele>
        <time>2018-12-06T15:15:45Z</time>
      </trkpt>
      <trkpt lat="48.09881" lon="-4.18328">
        <ele>302.20001220703</ele>
        <time>2018-12-06T15:15:46Z</time>
      </trkpt>
      <trkpt lat="48.09881" lon="-4.1833">
        <ele>301.60000610352</ele>
        <time>2018-12-06T15:15:47Z</time>
      </trkpt>
      <trkpt lat="48.09869" lon="-4.18358">
        <ele>305</ele>
        <time>2018-12-06T15:16:01Z</time>
      </trkpt>
      <trkpt lat="48.09864" lon="-4.18369">
        <ele>305.60000610352</ele>
        <time>2018-12-06T15:16:07Z</time>
      </trkpt>
      <trkpt lat="48.09863" lon="-4.18371">
        <ele>305.79998779297</ele>
        <time>2018-12-06T15:16:08Z</time>
      </trkpt>
      <trkpt lat="48.09862" lon="-4.18373">
        <ele>306</ele>
        <time>2018-12-06T15:16:09Z</time>
      </trkpt>
      <trkpt lat="48.09861" lon="-4.18375">
        <ele>306.60000610352</ele>
        <time>2018-12-06T15:16:10Z</time>
      </trkpt>
      <trkpt lat="48.0986" lon="-4.18377">
        <ele>307.20001220703</ele>
        <time>2018-12-06T15:16:11Z</time>
      </trkpt>
      <trkpt lat="48.09853" lon="-4.18403">
        <ele>315.20001220703</ele>
        <time>2018-12-06T15:16:26Z</time>
      </trkpt>
      <trkpt lat="48.0985" lon="-4.18412">
        <ele>324.60000610352</ele>
        <time>2018-12-06T15:16:41Z</time>
      </trkpt>
      <trkpt lat="48.09846" lon="-4.18416">
        <ele>324.79998779297</ele>
        <time>2018-12-06T15:16:44Z</time>
      </trkpt>
      <trkpt lat="48.09838" lon="-4.18428">
        <ele>324.60000610352</ele>
        <time>2018-12-06T15:16:51Z</time>
      </trkpt>
      <trkpt lat="48.09834" lon="-4.18431">
        <ele>325.20001220703</ele>
        <time>2018-12-06T15:16:54Z</time>
      </trkpt>
      <trkpt lat="48.09826" lon="-4.18441">
        <ele>323.39999389648</ele>
        <time>2018-12-06T15:17:05Z</time>
      </trkpt>
      <trkpt lat="48.09821" lon="-4.18447">
        <ele>324</ele>
        <time>2018-12-06T15:17:10Z</time>
      </trkpt>
      <trkpt lat="48.098" lon="-4.18481">
        <ele>312</ele>
        <time>2018-12-06T15:17:27Z</time>
      </trkpt>
      <trkpt lat="48.09792" lon="-4.18504">
        <ele>305.39999389648</ele>
        <time>2018-12-06T15:17:44Z</time>
      </trkpt>
      <trkpt lat="48.09789" lon="-4.18508">
        <ele>304</ele>
        <time>2018-12-06T15:17:47Z</time>
      </trkpt>
      <trkpt lat="48.09788" lon="-4.18509">
        <ele>303.79998779297</ele>
        <time>2018-12-06T15:17:48Z</time>
      </trkpt>
      <trkpt lat="48.09773" lon="-4.1853">
        <ele>300.39999389648</ele>
        <time>2018-12-06T15:18:01Z</time>
      </trkpt>
      <trkpt lat="48.09757" lon="-4.18555">
        <ele>295</ele>
        <time>2018-12-06T15:18:18Z</time>
      </trkpt>
      <trkpt lat="48.09746" lon="-4.1858">
        <ele>291.39999389648</ele>
        <time>2018-12-06T15:18:29Z</time>
      </trkpt>
      <trkpt lat="48.09746" lon="-4.18582">
        <ele>291.20001220703</ele>
        <time>2018-12-06T15:18:30Z</time>
      </trkpt>
      <trkpt lat="48.09745" lon="-4.18589">
        <ele>290.60000610352</ele>
        <time>2018-12-06T15:18:34Z</time>
      </trkpt>
      <trkpt lat="48.09745" lon="-4.18591">
        <ele>290.39999389648</ele>
        <time>2018-12-06T15:18:35Z</time>
      </trkpt>
      <trkpt lat="48.09744" lon="-4.18593">
        <ele>290.39999389648</ele>
        <time>2018-12-06T15:18:36Z</time>
      </trkpt>
      <trkpt lat="48.09743" lon="-4.18595">
        <ele>290</ele>
        <time>2018-12-06T15:18:37Z</time>
      </trkpt>
      <trkpt lat="48.09743" lon="-4.18597">
        <ele>290.20001220703</ele>
        <time>2018-12-06T15:18:38Z</time>
      </trkpt>
      <trkpt lat="48.09743" lon="-4.18599">
        <ele>289.60000610352</ele>
        <time>2018-12-06T15:18:39Z</time>
      </trkpt>
      <trkpt lat="48.09743" lon="-4.186">
        <ele>289.39999389648</ele>
        <time>2018-12-06T15:18:40Z</time>
      </trkpt>
      <trkpt lat="48.09741" lon="-4.18602">
        <ele>289</ele>
        <time>2018-12-06T15:18:41Z</time>
      </trkpt>
      <trkpt lat="48.09743" lon="-4.18637">
        <ele>290</ele>
        <time>2018-12-06T15:18:58Z</time>
      </trkpt>
      <trkpt lat="48.09741" lon="-4.18663">
        <ele>289.20001220703</ele>
        <time>2018-12-06T15:19:13Z</time>
      </trkpt>
      <trkpt lat="48.09733" lon="-4.18695">
        <ele>286.79998779297</ele>
        <time>2018-12-06T15:19:30Z</time>
      </trkpt>
      <trkpt lat="48.09733" lon="-4.18721">
        <ele>285.79998779297</ele>
        <time>2018-12-06T15:19:42Z</time>
      </trkpt>
      <trkpt lat="48.09734" lon="-4.18722">
        <ele>285.79998779297</ele>
        <time>2018-12-06T15:19:43Z</time>
      </trkpt>
      <trkpt lat="48.09734" lon="-4.18724">
        <ele>285.79998779297</ele>
        <time>2018-12-06T15:19:44Z</time>
      </trkpt>
      <trkpt lat="48.09735" lon="-4.18746">
        <ele>287.20001220703</ele>
        <time>2018-12-06T15:19:54Z</time>
      </trkpt>
      <trkpt lat="48.09735" lon="-4.18747">
        <ele>287.60000610352</ele>
        <time>2018-12-06T15:19:55Z</time>
      </trkpt>
      <trkpt lat="48.09732" lon="-4.18751">
        <ele>288.60000610352</ele>
        <time>2018-12-06T15:19:57Z</time>
      </trkpt>
      <trkpt lat="48.09712" lon="-4.18769">
        <ele>290.39999389648</ele>
        <time>2018-12-06T15:20:12Z</time>
      </trkpt>
      <trkpt lat="48.09696" lon="-4.18793">
        <ele>288.60000610352</ele>
        <time>2018-12-06T15:20:28Z</time>
      </trkpt>
      <trkpt lat="48.09684" lon="-4.18818">
        <ele>288.20001220703</ele>
        <time>2018-12-06T15:20:43Z</time>
      </trkpt>
      <trkpt lat="48.0968" lon="-4.1883">
        <ele>291.79998779297</ele>
        <time>2018-12-06T15:20:56Z</time>
      </trkpt>
      <trkpt lat="48.0967" lon="-4.18863">
        <ele>300.79998779297</ele>
        <time>2018-12-06T15:21:16Z</time>
      </trkpt>
      <trkpt lat="48.09657" lon="-4.18884">
        <ele>303</ele>
        <time>2018-12-06T15:21:30Z</time>
      </trkpt>
      <trkpt lat="48.09644" lon="-4.18914">
        <ele>299.39999389648</ele>
        <time>2018-12-06T15:21:45Z</time>
      </trkpt>
      <trkpt lat="48.0964" lon="-4.18935">
        <ele>302.79998779297</ele>
        <time>2018-12-06T15:22:00Z</time>
      </trkpt>
      <trkpt lat="48.09637" lon="-4.1894">
        <ele>302.20001220703</ele>
        <time>2018-12-06T15:22:03Z</time>
      </trkpt>
      <trkpt lat="48.09633" lon="-4.18956">
        <ele>299.39999389648</ele>
        <time>2018-12-06T15:22:14Z</time>
      </trkpt>
      <trkpt lat="48.09632" lon="-4.18963">
        <ele>296</ele>
        <time>2018-12-06T15:22:18Z</time>
      </trkpt>
      <trkpt lat="48.09616" lon="-4.18991">
        <ele>282.79998779297</ele>
        <time>2018-12-06T15:22:35Z</time>
      </trkpt>
      <trkpt lat="48.096" lon="-4.19027">
        <ele>270.60000610352</ele>
        <time>2018-12-06T15:22:54Z</time>
      </trkpt>
      <trkpt lat="48.09594" lon="-4.1904">
        <ele>266</ele>
        <time>2018-12-06T15:23:03Z</time>
      </trkpt>
      <trkpt lat="48.09586" lon="-4.19063">
        <ele>261.79998779297</ele>
        <time>2018-12-06T15:23:16Z</time>
      </trkpt>
      <trkpt lat="48.09574" lon="-4.19088">
        <ele>254.19999694824</ele>
        <time>2018-12-06T15:23:31Z</time>
      </trkpt>
      <trkpt lat="48.09573" lon="-4.1909">
        <ele>253.80000305176</ele>
        <time>2018-12-06T15:23:32Z</time>
      </trkpt>
      <trkpt lat="48.0957" lon="-4.191">
        <ele>251.19999694824</ele>
        <time>2018-12-06T15:23:38Z</time>
      </trkpt>
      <trkpt lat="48.09562" lon="-4.19126">
        <ele>245.80000305176</ele>
        <time>2018-12-06T15:23:54Z</time>
      </trkpt>
      <trkpt lat="48.09557" lon="-4.19153">
        <ele>242.80000305176</ele>
        <time>2018-12-06T15:24:10Z</time>
      </trkpt>
      <trkpt lat="48.09547" lon="-4.19185">
        <ele>238.80000305176</ele>
        <time>2018-12-06T15:24:25Z</time>
      </trkpt>
      <trkpt lat="48.09543" lon="-4.19192">
        <ele>237.80000305176</ele>
        <time>2018-12-06T15:24:29Z</time>
      </trkpt>
      <trkpt lat="48.09523" lon="-4.19193">
        <ele>233.39999389648</ele>
        <time>2018-12-06T15:24:46Z</time>
      </trkpt>
      <trkpt lat="48.09497" lon="-4.19159">
        <ele>227.80000305176</ele>
        <time>2018-12-06T15:25:12Z</time>
      </trkpt>
      <trkpt lat="48.09492" lon="-4.19151">
        <ele>227</ele>
        <time>2018-12-06T15:25:18Z</time>
      </trkpt>
      <trkpt lat="48.09485" lon="-4.19142">
        <ele>226</ele>
        <time>2018-12-06T15:25:23Z</time>
      </trkpt>
      <trkpt lat="48.09469" lon="-4.19108">
        <ele>224.60000610352</ele>
        <time>2018-12-06T15:25:42Z</time>
      </trkpt>
      <trkpt lat="48.09466" lon="-4.19096">
        <ele>225.39999389648</ele>
        <time>2018-12-06T15:25:49Z</time>
      </trkpt>
      <trkpt lat="48.09463" lon="-4.19091">
        <ele>226</ele>
        <time>2018-12-06T15:25:52Z</time>
      </trkpt>
      <trkpt lat="48.09444" lon="-4.19052">
        <ele>228</ele>
        <time>2018-12-06T15:26:18Z</time>
      </trkpt>
      <trkpt lat="48.09429" lon="-4.19017">
        <ele>230.19999694824</ele>
        <time>2018-12-06T15:26:36Z</time>
      </trkpt>
      <trkpt lat="48.09415" lon="-4.18991">
        <ele>226</ele>
        <time>2018-12-06T15:26:52Z</time>
      </trkpt>
      <trkpt lat="48.09402" lon="-4.1897">
        <ele>221</ele>
        <time>2018-12-06T15:27:07Z</time>
      </trkpt>
      <trkpt lat="48.09391" lon="-4.18947">
        <ele>217.39999389648</ele>
        <time>2018-12-06T15:27:21Z</time>
      </trkpt>
      <trkpt lat="48.09379" lon="-4.18928">
        <ele>213</ele>
        <time>2018-12-06T15:27:35Z</time>
      </trkpt>
      <trkpt lat="48.09366" lon="-4.18887">
        <ele>212.60000610352</ele>
        <time>2018-12-06T15:27:56Z</time>
      </trkpt>
      <trkpt lat="48.09358" lon="-4.18866">
        <ele>215.39999389648</ele>
        <time>2018-12-06T15:28:07Z</time>
      </trkpt>
      <trkpt lat="48.0935" lon="-4.18842">
        <ele>220.19999694824</ele>
        <time>2018-12-06T15:28:22Z</time>
      </trkpt>
      <trkpt lat="48.09339" lon="-4.18818">
        <ele>225.60000610352</ele>
        <time>2018-12-06T15:28:39Z</time>
      </trkpt>
      <trkpt lat="48.09329" lon="-4.18793">
        <ele>230</ele>
        <time>2018-12-06T15:28:57Z</time>
      </trkpt>
      <trkpt lat="48.09319" lon="-4.18772">
        <ele>232.39999389648</ele>
        <time>2018-12-06T15:29:11Z</time>
      </trkpt>
      <trkpt lat="48.09316" lon="-4.18768">
        <ele>232.80000305176</ele>
        <time>2018-12-06T15:29:13Z</time>
      </trkpt>
      <trkpt lat="48.09313" lon="-4.18763">
        <ele>232.60000610352</ele>
        <time>2018-12-06T15:29:16Z</time>
      </trkpt>
      <trkpt lat="48.09295" lon="-4.18735">
        <ele>232.80000305176</ele>
        <time>2018-12-06T15:29:33Z</time>
      </trkpt>
      <trkpt lat="48.09286" lon="-4.18718">
        <ele>233.39999389648</ele>
        <time>2018-12-06T15:29:46Z</time>
      </trkpt>
      <trkpt lat="48.09272" lon="-4.18692">
        <ele>236.19999694824</ele>
        <time>2018-12-06T15:30:03Z</time>
      </trkpt>
      <trkpt lat="48.0926" lon="-4.18678">
        <ele>238</ele>
        <time>2018-12-06T15:30:12Z</time>
      </trkpt>
      <trkpt lat="48.09245" lon="-4.18659">
        <ele>242.39999389648</ele>
        <time>2018-12-06T15:30:27Z</time>
      </trkpt>
      <trkpt lat="48.09237" lon="-4.18648">
        <ele>247.80000305176</ele>
        <time>2018-12-06T15:30:38Z</time>
      </trkpt>
      <trkpt lat="48.0923" lon="-4.18638">
        <ele>251.39999389648</ele>
        <time>2018-12-06T15:30:45Z</time>
      </trkpt>
      <trkpt lat="48.09227" lon="-4.18632">
        <ele>255</ele>
        <time>2018-12-06T15:30:51Z</time>
      </trkpt>
      <trkpt lat="48.09219" lon="-4.18616">
        <ele>260.39999389648</ele>
        <time>2018-12-06T15:31:01Z</time>
      </trkpt>
      <trkpt lat="48.09216" lon="-4.18603">
        <ele>262</ele>
        <time>2018-12-06T15:31:05Z</time>
      </trkpt>
      <trkpt lat="48.09216" lon="-4.18598">
        <ele>262.79998779297</ele>
        <time>2018-12-06T15:31:07Z</time>
      </trkpt>
      <trkpt lat="48.09214" lon="-4.18578">
        <ele>261.60000610352</ele>
        <time>2018-12-06T15:31:15Z</time>
      </trkpt>
      <trkpt lat="48.09211" lon="-4.18571">
        <ele>259</ele>
        <time>2018-12-06T15:31:20Z</time>
      </trkpt>
      <trkpt lat="48.09206" lon="-4.18552">
        <ele>253.60000610352</ele>
        <time>2018-12-06T15:31:31Z</time>
      </trkpt>
      <trkpt lat="48.09208" lon="-4.18533">
        <ele>251.80000305176</ele>
        <time>2018-12-06T15:31:41Z</time>
      </trkpt>
      <trkpt lat="48.09201" lon="-4.18516">
        <ele>248.60000610352</ele>
        <time>2018-12-06T15:31:50Z</time>
      </trkpt>
      <trkpt lat="48.09197" lon="-4.18503">
        <ele>245.39999389648</ele>
        <time>2018-12-06T15:31:57Z</time>
      </trkpt>
      <trkpt lat="48.09194" lon="-4.18473">
        <ele>240.60000610352</ele>
        <time>2018-12-06T15:32:13Z</time>
      </trkpt>
      <trkpt lat="48.09195" lon="-4.18456">
        <ele>238.60000610352</ele>
        <time>2018-12-06T15:32:22Z</time>
      </trkpt>
      <trkpt lat="48.09187" lon="-4.18431">
        <ele>235.19999694824</ele>
        <time>2018-12-06T15:32:33Z</time>
      </trkpt>
      <trkpt lat="48.09182" lon="-4.18406">
        <ele>228.60000610352</ele>
        <time>2018-12-06T15:32:46Z</time>
      </trkpt>
      <trkpt lat="48.09176" lon="-4.18373">
        <ele>216.60000610352</ele>
        <time>2018-12-06T15:33:03Z</time>
      </trkpt>
      <trkpt lat="48.09174" lon="-4.18355">
        <ele>209.19999694824</ele>
        <time>2018-12-06T15:33:13Z</time>
      </trkpt>
      <trkpt lat="48.09173" lon="-4.1833">
        <ele>203</ele>
        <time>2018-12-06T15:33:27Z</time>
      </trkpt>
      <trkpt lat="48.09167" lon="-4.18294">
        <ele>195.80000305176</ele>
        <time>2018-12-06T15:33:46Z</time>
      </trkpt>
      <trkpt lat="48.0916" lon="-4.18245">
        <ele>187.60000610352</ele>
        <time>2018-12-06T15:34:12Z</time>
      </trkpt>
      <trkpt lat="48.09156" lon="-4.18219">
        <ele>183.19999694824</ele>
        <time>2018-12-06T15:34:26Z</time>
      </trkpt>
      <trkpt lat="48.0915" lon="-4.18188">
        <ele>179.19999694824</ele>
        <time>2018-12-06T15:34:42Z</time>
      </trkpt>
      <trkpt lat="48.09149" lon="-4.18158">
        <ele>175.19999694824</ele>
        <time>2018-12-06T15:35:01Z</time>
      </trkpt>
      <trkpt lat="48.09148" lon="-4.18139">
        <ele>172</ele>
        <time>2018-12-06T15:35:11Z</time>
      </trkpt>
      <trkpt lat="48.09145" lon="-4.18116">
        <ele>170</ele>
        <time>2018-12-06T15:35:21Z</time>
      </trkpt>
      <trkpt lat="48.09143" lon="-4.18077">
        <ele>167.80000305176</ele>
        <time>2018-12-06T15:35:38Z</time>
      </trkpt>
      <trkpt lat="48.09142" lon="-4.18046">
        <ele>165.80000305176</ele>
        <time>2018-12-06T15:35:56Z</time>
      </trkpt>
      <trkpt lat="48.09155" lon="-4.18016">
        <ele>164</ele>
        <time>2018-12-06T15:36:16Z</time>
      </trkpt>
      <trkpt lat="48.09144" lon="-4.17999">
        <ele>163.39999389648</ele>
        <time>2018-12-06T15:36:27Z</time>
      </trkpt>
      <trkpt lat="48.09139" lon="-4.17998">
        <ele>164.19999694824</ele>
        <time>2018-12-06T15:36:31Z</time>
      </trkpt>
      <trkpt lat="48.09111" lon="-4.17999">
        <ele>163.19999694824</ele>
        <time>2018-12-06T15:36:52Z</time>
      </trkpt>
      <trkpt lat="48.09093" lon="-4.17991">
        <ele>166.80000305176</ele>
        <time>2018-12-06T15:37:08Z</time>
      </trkpt>
      <trkpt lat="48.0908" lon="-4.17984">
        <ele>172</ele>
        <time>2018-12-06T15:37:19Z</time>
      </trkpt>
      <trkpt lat="48.09057" lon="-4.17973">
        <ele>178.60000610352</ele>
        <time>2018-12-06T15:37:41Z</time>
      </trkpt>
      <trkpt lat="48.09039" lon="-4.17962">
        <ele>180</ele>
        <time>2018-12-06T15:37:57Z</time>
      </trkpt>
      <trkpt lat="48.0902" lon="-4.17953">
        <ele>182</ele>
        <time>2018-12-06T15:38:13Z</time>
      </trkpt>
      <trkpt lat="48.09017" lon="-4.17951">
        <ele>182.19999694824</ele>
        <time>2018-12-06T15:38:15Z</time>
      </trkpt>
      <trkpt lat="48.0899" lon="-4.17939">
        <ele>176.80000305176</ele>
        <time>2018-12-06T15:38:35Z</time>
      </trkpt>
      <trkpt lat="48.08989" lon="-4.17939">
        <ele>176.60000610352</ele>
        <time>2018-12-06T15:38:36Z</time>
      </trkpt>
      <trkpt lat="48.08966" lon="-4.17926">
        <ele>173.39999389648</ele>
        <time>2018-12-06T15:38:56Z</time>
      </trkpt>
      <trkpt lat="48.08955" lon="-4.17914">
        <ele>170.39999389648</ele>
        <time>2018-12-06T15:39:08Z</time>
      </trkpt>
      <trkpt lat="48.08953" lon="-4.17911">
        <ele>169.39999389648</ele>
        <time>2018-12-06T15:39:10Z</time>
      </trkpt>
      <trkpt lat="48.08936" lon="-4.17886">
        <ele>163.80000305176</ele>
        <time>2018-12-06T15:39:26Z</time>
      </trkpt>
      <trkpt lat="48.08922" lon="-4.17866">
        <ele>162.19999694824</ele>
        <time>2018-12-06T15:39:40Z</time>
      </trkpt>
      <trkpt lat="48.08915" lon="-4.17859">
        <ele>161.80000305176</ele>
        <time>2018-12-06T15:39:48Z</time>
      </trkpt>
      <trkpt lat="48.08913" lon="-4.17859">
        <ele>161.80000305176</ele>
        <time>2018-12-06T15:39:50Z</time>
      </trkpt>
      <trkpt lat="48.08908" lon="-4.17859">
        <ele>162.60000610352</ele>
        <time>2018-12-06T15:39:54Z</time>
      </trkpt>
      <trkpt lat="48.08906" lon="-4.17862">
        <ele>163</ele>
        <time>2018-12-06T15:39:56Z</time>
      </trkpt>
      <trkpt lat="48.08908" lon="-4.17873">
        <ele>163.80000305176</ele>
        <time>2018-12-06T15:40:03Z</time>
      </trkpt>
      <trkpt lat="48.08912" lon="-4.17903">
        <ele>168</ele>
        <time>2018-12-06T15:40:19Z</time>
      </trkpt>
      <trkpt lat="48.08909" lon="-4.17928">
        <ele>172.60000610352</ele>
        <time>2018-12-06T15:40:32Z</time>
      </trkpt>
      <trkpt lat="48.08906" lon="-4.17934">
        <ele>174.60000610352</ele>
        <time>2018-12-06T15:40:36Z</time>
      </trkpt>
      <trkpt lat="48.08906" lon="-4.17939">
        <ele>175.60000610352</ele>
        <time>2018-12-06T15:40:39Z</time>
      </trkpt>
      <trkpt lat="48.0891" lon="-4.17955">
        <ele>178.60000610352</ele>
        <time>2018-12-06T15:40:46Z</time>
      </trkpt>
      <trkpt lat="48.08909" lon="-4.17974">
        <ele>184.60000610352</ele>
        <time>2018-12-06T15:40:57Z</time>
      </trkpt>
      <trkpt lat="48.08905" lon="-4.18">
        <ele>191.60000610352</ele>
        <time>2018-12-06T15:41:07Z</time>
      </trkpt>
      <trkpt lat="48.08903" lon="-4.18031">
        <ele>197.39999389648</ele>
        <time>2018-12-06T15:41:22Z</time>
      </trkpt>
      <trkpt lat="48.08905" lon="-4.1805">
        <ele>201.80000305176</ele>
        <time>2018-12-06T15:41:33Z</time>
      </trkpt>
      <trkpt lat="48.08911" lon="-4.18061">
        <ele>199.19999694824</ele>
        <time>2018-12-06T15:41:38Z</time>
      </trkpt>
      <trkpt lat="48.08907" lon="-4.18072">
        <ele>200.60000610352</ele>
        <time>2018-12-06T15:41:47Z</time>
      </trkpt>
      <trkpt lat="48.08907" lon="-4.18084">
        <ele>203.19999694824</ele>
        <time>2018-12-06T15:41:59Z</time>
      </trkpt>
      <trkpt lat="48.08906" lon="-4.18107">
        <ele>205.80000305176</ele>
        <time>2018-12-06T15:42:15Z</time>
      </trkpt>
      <trkpt lat="48.08909" lon="-4.18136">
        <ele>199.19999694824</ele>
        <time>2018-12-06T15:42:26Z</time>
      </trkpt>
      <trkpt lat="48.08926" lon="-4.1817">
        <ele>192.19999694824</ele>
        <time>2018-12-06T15:42:49Z</time>
      </trkpt>
      <trkpt lat="48.0895" lon="-4.18202">
        <ele>185.60000610352</ele>
        <time>2018-12-06T15:43:14Z</time>
      </trkpt>
      <trkpt lat="48.08959" lon="-4.18231">
        <ele>181</ele>
        <time>2018-12-06T15:43:39Z</time>
      </trkpt>
      <trkpt lat="48.08952" lon="-4.18271">
        <ele>178.80000305176</ele>
        <time>2018-12-06T15:44:06Z</time>
      </trkpt>
      <trkpt lat="48.08948" lon="-4.18288">
        <ele>178.39999389648</ele>
        <time>2018-12-06T15:44:16Z</time>
      </trkpt>
      <trkpt lat="48.08938" lon="-4.18312">
        <ele>178.60000610352</ele>
        <time>2018-12-06T15:44:34Z</time>
      </trkpt>
      <trkpt lat="48.08938" lon="-4.18317">
        <ele>176</ele>
        <time>2018-12-06T15:44:51Z</time>
      </trkpt>
      <trkpt lat="48.08938" lon="-4.18303">
        <ele>174.39999389648</ele>
        <time>2018-12-06T15:45:25Z</time>
      </trkpt>
      <trkpt lat="48.08928" lon="-4.18303">
        <ele>174.19999694824</ele>
        <time>2018-12-06T15:45:53Z</time>
      </trkpt>
      <trkpt lat="48.08926" lon="-4.18302">
        <ele>174.19999694824</ele>
        <time>2018-12-06T15:45:55Z</time>
      </trkpt>
      <trkpt lat="48.08904" lon="-4.183">
        <ele>177.60000610352</ele>
        <time>2018-12-06T15:46:12Z</time>
      </trkpt>
      <trkpt lat="48.08883" lon="-4.18297">
        <ele>184.19999694824</ele>
        <time>2018-12-06T15:46:32Z</time>
      </trkpt>
      <trkpt lat="48.08867" lon="-4.18292">
        <ele>187.80000305176</ele>
        <time>2018-12-06T15:46:47Z</time>
      </trkpt>
      <trkpt lat="48.08832" lon="-4.1829">
        <ele>191.39999389648</ele>
        <time>2018-12-06T15:47:09Z</time>
      </trkpt>
      <trkpt lat="48.08814" lon="-4.18285">
        <ele>194</ele>
        <time>2018-12-06T15:47:24Z</time>
      </trkpt>
      <trkpt lat="48.08809" lon="-4.18285">
        <ele>195.39999389648</ele>
        <time>2018-12-06T15:47:29Z</time>
      </trkpt>
      <trkpt lat="48.08788" lon="-4.18283">
        <ele>202.19999694824</ele>
        <time>2018-12-06T15:47:45Z</time>
      </trkpt>
      <trkpt lat="48.08777" lon="-4.18268">
        <ele>210.60000610352</ele>
        <time>2018-12-06T15:48:00Z</time>
      </trkpt>
      <trkpt lat="48.08777" lon="-4.18257">
        <ele>211.19999694824</ele>
        <time>2018-12-06T15:48:06Z</time>
      </trkpt>
      <trkpt lat="48.08775" lon="-4.18234">
        <ele>213</ele>
        <time>2018-12-06T15:48:16Z</time>
      </trkpt>
      <trkpt lat="48.08774" lon="-4.18214">
        <ele>217.39999389648</ele>
        <time>2018-12-06T15:48:26Z</time>
      </trkpt>
      <trkpt lat="48.08769" lon="-4.18189">
        <ele>222</ele>
        <time>2018-12-06T15:48:35Z</time>
      </trkpt>
      <trkpt lat="48.08767" lon="-4.18159">
        <ele>224.39999389648</ele>
        <time>2018-12-06T15:48:50Z</time>
      </trkpt>
      <trkpt lat="48.08767" lon="-4.18142">
        <ele>226.19999694824</ele>
        <time>2018-12-06T15:49:03Z</time>
      </trkpt>
      <trkpt lat="48.08777" lon="-4.18126">
        <ele>227.60000610352</ele>
        <time>2018-12-06T15:49:19Z</time>
      </trkpt>
      <trkpt lat="48.08776" lon="-4.18114">
        <ele>227.19999694824</ele>
        <time>2018-12-06T15:49:29Z</time>
      </trkpt>
      <trkpt lat="48.08771" lon="-4.18071">
        <ele>225.39999389648</ele>
        <time>2018-12-06T15:49:52Z</time>
      </trkpt>
      <trkpt lat="48.08772" lon="-4.18038">
        <ele>220.80000305176</ele>
        <time>2018-12-06T15:50:10Z</time>
      </trkpt>
      <trkpt lat="48.08771" lon="-4.18011">
        <ele>215.80000305176</ele>
        <time>2018-12-06T15:50:27Z</time>
      </trkpt>
      <trkpt lat="48.08764" lon="-4.18">
        <ele>216.39999389648</ele>
        <time>2018-12-06T15:50:42Z</time>
      </trkpt>
      <trkpt lat="48.08756" lon="-4.17995">
        <ele>217.80000305176</ele>
        <time>2018-12-06T15:50:54Z</time>
      </trkpt>
      <trkpt lat="48.08739" lon="-4.17999">
        <ele>220.19999694824</ele>
        <time>2018-12-06T15:51:13Z</time>
      </trkpt>
      <trkpt lat="48.08714" lon="-4.18011">
        <ele>225</ele>
        <time>2018-12-06T15:51:41Z</time>
      </trkpt>
      <trkpt lat="48.0871" lon="-4.18016">
        <ele>225.60000610352</ele>
        <time>2018-12-06T15:51:45Z</time>
      </trkpt>
      <trkpt lat="48.08705" lon="-4.1802">
        <ele>225.80000305176</ele>
        <time>2018-12-06T15:51:49Z</time>
      </trkpt>
      <trkpt lat="48.08702" lon="-4.18027">
        <ele>226.39999389648</ele>
        <time>2018-12-06T15:51:53Z</time>
      </trkpt>
      <trkpt lat="48.08694" lon="-4.18042">
        <ele>227.39999389648</ele>
        <time>2018-12-06T15:52:04Z</time>
      </trkpt>
      <trkpt lat="48.08684" lon="-4.18079">
        <ele>231.60000610352</ele>
        <time>2018-12-06T15:52:23Z</time>
      </trkpt>
      <trkpt lat="48.08682" lon="-4.18104">
        <ele>234.19999694824</ele>
        <time>2018-12-06T15:52:38Z</time>
      </trkpt>
      <trkpt lat="48.0868" lon="-4.18124">
        <ele>234.80000305176</ele>
        <time>2018-12-06T15:52:47Z</time>
      </trkpt>
      <trkpt lat="48.08681" lon="-4.18161">
        <ele>234.39999389648</ele>
        <time>2018-12-06T15:53:06Z</time>
      </trkpt>
      <trkpt lat="48.08679" lon="-4.18187">
        <ele>233.80000305176</ele>
        <time>2018-12-06T15:53:22Z</time>
      </trkpt>
      <trkpt lat="48.0867" lon="-4.18231">
        <ele>232.60000610352</ele>
        <time>2018-12-06T15:53:43Z</time>
      </trkpt>
      <trkpt lat="48.08657" lon="-4.18273">
        <ele>232.80000305176</ele>
        <time>2018-12-06T15:54:00Z</time>
      </trkpt>
      <trkpt lat="48.08654" lon="-4.18275">
        <ele>232.80000305176</ele>
        <time>2018-12-06T15:54:03Z</time>
      </trkpt>
      <trkpt lat="48.08648" lon="-4.18286">
        <ele>233</ele>
        <time>2018-12-06T15:54:08Z</time>
      </trkpt>
      <trkpt lat="48.08646" lon="-4.183">
        <ele>234.19999694824</ele>
        <time>2018-12-06T15:54:15Z</time>
      </trkpt>
      <trkpt lat="48.08645" lon="-4.18324">
        <ele>237.80000305176</ele>
        <time>2018-12-06T15:54:30Z</time>
      </trkpt>
      <trkpt lat="48.08646" lon="-4.18329">
        <ele>238.60000610352</ele>
        <time>2018-12-06T15:54:32Z</time>
      </trkpt>
      <trkpt lat="48.08646" lon="-4.1834">
        <ele>240.19999694824</ele>
        <time>2018-12-06T15:54:37Z</time>
      </trkpt>
      <trkpt lat="48.08647" lon="-4.18356">
        <ele>243.60000610352</ele>
        <time>2018-12-06T15:54:46Z</time>
      </trkpt>
      <trkpt lat="48.0865" lon="-4.18365">
        <ele>244.80000305176</ele>
        <time>2018-12-06T15:54:51Z</time>
      </trkpt>
      <trkpt lat="48.0864" lon="-4.18368">
        <ele>211.19999694824</ele>
        <time>2018-12-06T15:55:02Z</time>
      </trkpt>
      <trkpt lat="48.08631" lon="-4.1838">
        <ele>199.60000610352</ele>
        <time>2018-12-06T15:55:09Z</time>
      </trkpt>
      <trkpt lat="48.0863" lon="-4.18384">
        <ele>197.39999389648</ele>
        <time>2018-12-06T15:55:11Z</time>
      </trkpt>
      <trkpt lat="48.08625" lon="-4.184">
        <ele>185.60000610352</ele>
        <time>2018-12-06T15:55:20Z</time>
      </trkpt>
      <trkpt lat="48.08618" lon="-4.18419">
        <ele>168.80000305176</ele>
        <time>2018-12-06T15:55:34Z</time>
      </trkpt>
      <trkpt lat="48.08616" lon="-4.18448">
        <ele>155.80000305176</ele>
        <time>2018-12-06T15:55:51Z</time>
      </trkpt>
      <trkpt lat="48.08614" lon="-4.18463">
        <ele>148.60000610352</ele>
        <time>2018-12-06T15:56:00Z</time>
      </trkpt>
      <trkpt lat="48.08609" lon="-4.18474">
        <ele>145</ele>
        <time>2018-12-06T15:56:08Z</time>
      </trkpt>
      <trkpt lat="48.08599" lon="-4.18473">
        <ele>141.39999389648</ele>
        <time>2018-12-06T15:56:17Z</time>
      </trkpt>
      <trkpt lat="48.0859" lon="-4.18464">
        <ele>139</ele>
        <time>2018-12-06T15:56:25Z</time>
      </trkpt>
      <trkpt lat="48.0858" lon="-4.18454">
        <ele>137.39999389648</ele>
        <time>2018-12-06T15:56:35Z</time>
      </trkpt>
      <trkpt lat="48.08558" lon="-4.18435">
        <ele>135.19999694824</ele>
        <time>2018-12-06T15:56:53Z</time>
      </trkpt>
      <trkpt lat="48.0854" lon="-4.18419">
        <ele>133.19999694824</ele>
        <time>2018-12-06T15:57:10Z</time>
      </trkpt>
      <trkpt lat="48.08517" lon="-4.18399">
        <ele>133.60000610352</ele>
        <time>2018-12-06T15:57:31Z</time>
      </trkpt>
      <trkpt lat="48.08497" lon="-4.18387">
        <ele>133.39999389648</ele>
        <time>2018-12-06T15:57:48Z</time>
      </trkpt>
      <trkpt lat="48.08472" lon="-4.18385">
        <ele>132.80000305176</ele>
        <time>2018-12-06T15:58:06Z</time>
      </trkpt>
      <trkpt lat="48.08455" lon="-4.18383">
        <ele>132.19999694824</ele>
        <time>2018-12-06T15:58:21Z</time>
      </trkpt>
      <trkpt lat="48.08431" lon="-4.18383">
        <ele>126.80000305176</ele>
        <time>2018-12-06T15:58:39Z</time>
      </trkpt>
      <trkpt lat="48.08425" lon="-4.18385">
        <ele>126.59999847412</ele>
        <time>2018-12-06T15:58:44Z</time>
      </trkpt>
      <trkpt lat="48.08394" lon="-4.18383">
        <ele>121.80000305176</ele>
        <time>2018-12-06T15:59:05Z</time>
      </trkpt>
      <trkpt lat="48.08381" lon="-4.18382">
        <ele>120.59999847412</ele>
        <time>2018-12-06T15:59:16Z</time>
      </trkpt>
      <trkpt lat="48.08374" lon="-4.18395">
        <ele>120.40000152588</ele>
        <time>2018-12-06T15:59:27Z</time>
      </trkpt>
      <trkpt lat="48.08367" lon="-4.18427">
        <ele>122.59999847412</ele>
        <time>2018-12-06T15:59:45Z</time>
      </trkpt>
      <trkpt lat="48.08348" lon="-4.18461">
        <ele>124</ele>
        <time>2018-12-06T16:00:03Z</time>
      </trkpt>
      <trkpt lat="48.08347" lon="-4.18463">
        <ele>124</ele>
        <time>2018-12-06T16:00:05Z</time>
      </trkpt>
      <trkpt lat="48.0834" lon="-4.18471">
        <ele>121.40000152588</ele>
        <time>2018-12-06T16:00:17Z</time>
      </trkpt>
      <trkpt lat="48.0833" lon="-4.18482">
        <ele>118.19999694824</ele>
        <time>2018-12-06T16:00:30Z</time>
      </trkpt>
      <trkpt lat="48.08318" lon="-4.18496">
        <ele>113.59999847412</ele>
        <time>2018-12-06T16:00:42Z</time>
      </trkpt>
      <trkpt lat="48.08311" lon="-4.18525">
        <ele>112.80000305176</ele>
        <time>2018-12-06T16:00:52Z</time>
      </trkpt>
      <trkpt lat="48.08309" lon="-4.18533">
        <ele>111.80000305176</ele>
        <time>2018-12-06T16:00:57Z</time>
      </trkpt>
      <trkpt lat="48.08307" lon="-4.18572">
        <ele>109.19999694824</ele>
        <time>2018-12-06T16:01:15Z</time>
      </trkpt>
      <trkpt lat="48.08296" lon="-4.18596">
        <ele>107.19999694824</ele>
        <time>2018-12-06T16:01:32Z</time>
      </trkpt>
      <trkpt lat="48.08275" lon="-4.18625">
        <ele>108</ele>
        <time>2018-12-06T16:01:50Z</time>
      </trkpt>
      <trkpt lat="48.08274" lon="-4.18626">
        <ele>107.80000305176</ele>
        <time>2018-12-06T16:01:51Z</time>
      </trkpt>
      <trkpt lat="48.0826" lon="-4.18638">
        <ele>101.80000305176</ele>
        <time>2018-12-06T16:02:09Z</time>
      </trkpt>
      <trkpt lat="48.08248" lon="-4.18657">
        <ele>97.400001525879</ele>
        <time>2018-12-06T16:02:29Z</time>
      </trkpt>
      <trkpt lat="48.0824" lon="-4.18686">
        <ele>95</ele>
        <time>2018-12-06T16:02:41Z</time>
      </trkpt>
      <trkpt lat="48.08228" lon="-4.18743">
        <ele>97.599998474121</ele>
        <time>2018-12-06T16:03:02Z</time>
      </trkpt>
      <trkpt lat="48.08226" lon="-4.18755">
        <ele>98.599998474121</ele>
        <time>2018-12-06T16:03:08Z</time>
      </trkpt>
      <trkpt lat="48.08223" lon="-4.18761">
        <ele>99.800003051758</ele>
        <time>2018-12-06T16:03:12Z</time>
      </trkpt>
      <trkpt lat="48.08211" lon="-4.18802">
        <ele>105.59999847412</ele>
        <time>2018-12-06T16:03:33Z</time>
      </trkpt>
      <trkpt lat="48.08198" lon="-4.18845">
        <ele>114.19999694824</ele>
        <time>2018-12-06T16:03:54Z</time>
      </trkpt>
      <trkpt lat="48.08186" lon="-4.18871">
        <ele>120.80000305176</ele>
        <time>2018-12-06T16:04:09Z</time>
      </trkpt>
      <trkpt lat="48.08168" lon="-4.18897">
        <ele>119.40000152588</ele>
        <time>2018-12-06T16:04:28Z</time>
      </trkpt>
      <trkpt lat="48.08141" lon="-4.18917">
        <ele>120.80000305176</ele>
        <time>2018-12-06T16:04:48Z</time>
      </trkpt>
      <trkpt lat="48.08114" lon="-4.18924">
        <ele>121.80000305176</ele>
        <time>2018-12-06T16:05:07Z</time>
      </trkpt>
      <trkpt lat="48.08087" lon="-4.18921">
        <ele>122.80000305176</ele>
        <time>2018-12-06T16:05:25Z</time>
      </trkpt>
      <trkpt lat="48.08058" lon="-4.18913">
        <ele>125</ele>
        <time>2018-12-06T16:05:46Z</time>
      </trkpt>
      <trkpt lat="48.08047" lon="-4.18909">
        <ele>126.19999694824</ele>
        <time>2018-12-06T16:05:53Z</time>
      </trkpt>
      <trkpt lat="48.08033" lon="-4.189">
        <ele>127.19999694824</ele>
        <time>2018-12-06T16:06:07Z</time>
      </trkpt>
      <trkpt lat="48.08022" lon="-4.18886">
        <ele>128.39999389648</ele>
        <time>2018-12-06T16:06:21Z</time>
      </trkpt>
      <trkpt lat="48.0802" lon="-4.18885">
        <ele>129</ele>
        <time>2018-12-06T16:06:23Z</time>
      </trkpt>
      <trkpt lat="48.07998" lon="-4.18859">
        <ele>133.39999389648</ele>
        <time>2018-12-06T16:06:40Z</time>
      </trkpt>
      <trkpt lat="48.07986" lon="-4.18851">
        <ele>136.60000610352</ele>
        <time>2018-12-06T16:06:52Z</time>
      </trkpt>
      <trkpt lat="48.07967" lon="-4.18841">
        <ele>140.39999389648</ele>
        <time>2018-12-06T16:07:12Z</time>
      </trkpt>
      <trkpt lat="48.0795" lon="-4.1882">
        <ele>140.39999389648</ele>
        <time>2018-12-06T16:07:27Z</time>
      </trkpt>
      <trkpt lat="48.07918" lon="-4.18792">
        <ele>139.60000610352</ele>
        <time>2018-12-06T16:07:50Z</time>
      </trkpt>
      <trkpt lat="48.07904" lon="-4.18784">
        <ele>140.60000610352</ele>
        <time>2018-12-06T16:08:03Z</time>
      </trkpt>
      <trkpt lat="48.07885" lon="-4.18769">
        <ele>143.60000610352</ele>
        <time>2018-12-06T16:08:19Z</time>
      </trkpt>
      <trkpt lat="48.07872" lon="-4.18773">
        <ele>145.19999694824</ele>
        <time>2018-12-06T16:08:34Z</time>
      </trkpt>
      <trkpt lat="48.07863" lon="-4.18782">
        <ele>145.60000610352</ele>
        <time>2018-12-06T16:08:44Z</time>
      </trkpt>
      <trkpt lat="48.0786" lon="-4.18798">
        <ele>145</ele>
        <time>2018-12-06T16:08:54Z</time>
      </trkpt>
      <trkpt lat="48.07859" lon="-4.18825">
        <ele>145.19999694824</ele>
        <time>2018-12-06T16:09:09Z</time>
      </trkpt>
      <trkpt lat="48.07854" lon="-4.18854">
        <ele>146</ele>
        <time>2018-12-06T16:09:26Z</time>
      </trkpt>
      <trkpt lat="48.07849" lon="-4.18893">
        <ele>148</ele>
        <time>2018-12-06T16:09:44Z</time>
      </trkpt>
      <trkpt lat="48.07849" lon="-4.18903">
        <ele>148.39999389648</ele>
        <time>2018-12-06T16:09:49Z</time>
      </trkpt>
      <trkpt lat="48.07851" lon="-4.18909">
        <ele>148.80000305176</ele>
        <time>2018-12-06T16:09:53Z</time>
      </trkpt>
      <trkpt lat="48.07847" lon="-4.1895">
        <ele>150.39999389648</ele>
        <time>2018-12-06T16:10:14Z</time>
      </trkpt>
      <trkpt lat="48.07842" lon="-4.18986">
        <ele>152.60000610352</ele>
        <time>2018-12-06T16:10:33Z</time>
      </trkpt>
      <trkpt lat="48.0784" lon="-4.19021">
        <ele>150.39999389648</ele>
        <time>2018-12-06T16:10:50Z</time>
      </trkpt>
      <trkpt lat="48.07839" lon="-4.1903">
        <ele>149.60000610352</ele>
        <time>2018-12-06T16:10:56Z</time>
      </trkpt>
      <trkpt lat="48.07834" lon="-4.19044">
        <ele>149.39999389648</ele>
        <time>2018-12-06T16:11:05Z</time>
      </trkpt>
      <trkpt lat="48.07824" lon="-4.19044">
        <ele>149.19999694824</ele>
        <time>2018-12-06T16:11:12Z</time>
      </trkpt>
      <trkpt lat="48.07818" lon="-4.19041">
        <ele>149.39999389648</ele>
        <time>2018-12-06T16:11:28Z</time>
      </trkpt>
      <trkpt lat="48.07818" lon="-4.19041">
        <ele>148.80000305176</ele>
        <time>2018-12-06T16:11:31Z</time>
      </trkpt>
    </trkseg>
  </trk>
</gpx>